KP SOUTHERN CALIFORNIA HALF MARATHON & 5K
IRVINE, CA.
January 7, 2012
     
Results by www.ResultsByPrimeTime.com  
Software by ChuckScore  
     
Male Unknown 1-8 9-10 11-12 13-14 15-18 19-24 25-29 30-34 35-39 40-44 45-49 50-54 55-59 60-64 65-69 70-74 75-79 80-99
Female Unknown 1-8 9-10 11-12 13-14 15-18 19-24 25-29 30-34 35-39 40-44 45-49 50-54 55-59 60-64 65-69 70-74 75-79
Top Male
  Overall Overall State/
Place Name Bib Gun Tag Pace Place by Sex City County
1 Hernandez,Gabe 2776 15:29.4 15:29.4 5:00 1 1 Newport Beach CA
2 Ferguson,Brandon 2864 15:31.5 15:31.4 5:00 2 2 Irvine CA
3 Gidabday,Sydney 2253 15:37.6 15:37.2 5:02 3 3 Orange CA
Go To Top
Top Female
  Overall Overall State/
Place Name Bib Gun Tag Pace Place by Sex City County
1 Slykhous,Nichole 2791 17:50.6 17:48.9 5:45 35 1 Newport Beach CA
2 Rios,Leilani 1740 17:59.1 17:58.0 5:48 37 2 Coto De Caza CA
3 Hobson,Holly 1022 18:27.7 18:26.4 5:57 47 3 Irvine CA
Go To Top
Age Unknown - Male
  Overall Overall State/
Place Name Bib Gun Tag Pace Place by Sex City County
1 Unknown, 2550 16:29.7 16:29.0 5:19 14 14
2 Moss,John 1463 16:52.2 16:51.6 5:26 17 17 Sierra Madre CA
3 Unknown, 2875 17:10.6 17:08.8 5:32 23 23
4 Unknown, 1086 18:09.2 18:07.8 5:51 41 39
5 Dietz,Mike 680 18:09.7 18:08.3 5:51 42 40 Laguna Niguel CA
6 Unknown, 2606 19:23.7 19:21.6 6:15 62 55
7 Unknown, 2182 22:12.4 22:10.3 7:09 144 109
8 Unknown, 2914 22:46.4 22:25.4 7:14 157 120
9 Leon,Nicolas 1255 24:04.2 23:57.5 7:44 207 153 Irvine CA
10 Unknown, 1191 25:12.8 24:59.5 8:04 239 165
11 Unknown, 471 26:12.7 25:59.5 8:23 278 188
12 Unknown, 2912 27:03.1 26:53.1 8:40 316 207
13 Unknown, 2609 28:59.0 28:46.2 9:17 403 254
14 Unknown, 2990 29:28.7 29:23.9 9:29 425 260
15 Unknown, 2885 29:30.1 29:29.8 9:31 430 264
16 Unknown, 2236 31:14.8 30:15.0 9:45 460 272
17 Unknown, 2227 30:36.3 30:20.1 9:47 464 274
18 Orozco,Brian 2898 31:31.3 31:31.3 10:10 512 289
19 Unknown, 2857 33:35.1 32:45.5 10:34 568 302
20 Unknown, 2562 36:14.4 35:31.9 11:28 633 325
21 Rivera-carbone,Javier 1743 43:50.8 42:48.8 13:49 761 359 San Juan Capistrano CA
Go To Top
1-8 Male
  Overall Overall State/
Place Name Bib Gun Tag Pace Place by Sex City County
1 Rico Jaramillo,Zeph 2780 24:01.7 23:53.5 7:42 204 151 La Habra CA
2 Lotosky,Nicholas 1290 27:59.9 27:51.7 8:59 354 231 Long Beach CA
3 Gonzalez,Isaac 2654 31:42.0 31:19.3 10:06 507 285 Lancaster CA
4 Hamashima,Shota 949 32:55.3 32:26.0 10:28 549 296 Redondo Beach CA
5 Ball,Ethan 2790 35:01.4 34:37.9 11:10 616 317 Irvine CA
6 Nunez,Andres 1536 37:20.3 37:08.8 11:59 669 334 Wilmington CA
7 Hawley-browder,Sam 972 37:59.8 37:23.7 12:04 680 336 Anaheim CA
Go To Top
9-10 Male
  Overall Overall State/
Place Name Bib Gun Tag Pace Place by Sex City County
1 Sears,Ryan 1846 26:12.2 26:04.5 8:25 286 193 Aliso Viejo CA
2 Boucher,Carter 437 27:20.4 27:05.3 8:44 322 213 Irvine CA
3 Paroly,Charley 2920 28:07.7 27:59.7 9:02 365 238 Dana Point CA
4 Cord,Zachary 604 28:32.0 28:16.2 9:07 376 243 Laguna Beach CA
5 Salinger,Max 1804 30:59.3 30:32.1 9:51 476 277 Ladera Ranch CA
6 Rafizad,Sam 1700 33:04.0 32:31.3 10:29 556 298 Laguna Niguel CA
7 Haar,Tyler 942 35:44.3 35:05.7 11:19 623 319 Hemet CA
Go To Top
11-12 Male
  Overall Overall State/
Place Name Bib Gun Tag Pace Place by Sex City County
1 Frisone,Ethan 2471 19:43.2 19:42.2 6:21 71 63 Placentia CA
2 Salemme,Luke 2838 21:08.9 21:02.4 6:47 112 91 Irvine CA
3 Torres,Victor 2184 22:12.3 22:10.6 7:09 145 110 Santa Ana CA
4 Hilby,Craig 1005 22:41.5 22:17.7 7:12 151 114 Irvine CA
5 Byrne,Sean 486 22:30.6 22:22.2 7:13 154 117 Laguna Niguel CA
6 Williams,Ryan 2107 22:33.1 22:24.0 7:14 156 119 Laguna Niguel CA
7 Colley,Robert 589 22:34.9 22:26.0 7:14 158 121 Laguna Niguel CA
8 Pearson,Evan 1617 25:59.6 25:50.2 8:20 271 183 Laguna Niguel CA
9 Kelly,Quinn 1158 26:11.2 26:03.1 8:24 284 192 Corona Del Mar CA
10 Najera,Gerson 144 28:02.7 27:59.0 9:02 362 236 Santa Ana CA
11 Ruiz,Kevin 154 28:07.6 28:02.6 9:03 366 239 Santa Ana CA
12 Boothroyd,Josh 2631 30:49.3 30:42.4 9:54 484 280 Irvine CA
13 Sanchez,Pedro 155 31:32.3 31:27.1 10:09 509 286 Santa Ana CA
14 Cord,Remington 603 31:44.5 31:28.6 10:09 511 288 Laguna Beach CA
15 Najera,Samuel 145 33:02.6 32:59.3 10:38 576 306 Santa Ana CA
16 Garcia,Andrew 138 45:37.1 45:24.7 14:39 798 372 Santa Ana CA
17 Burke,James 2496 56:58.1 54:25.5 17:33 882 396 Corona CA
18 Tiber,Benjamin 6268 1:57:56.6 1:46:15.6 34:17 956 424 Northridge CA
19 Escobedo,Cesar 6098 1:50:26.6 1:50:26.6 35:38 958 426 Sunland CA
Go To Top
13-14 Male
  Overall Overall State/
Place Name Bib Gun Tag Pace Place by Sex City County
1 Ogden,Jake 02875 17:10.6 17:08.8 5:32 24 24 Aliso Viejo CA
2 King,Jacob 2915 17:22.1 17:20.4 5:36 27 27 Mission Viejo CA
3 Seckinger,Daltan 272 17:21.9 17:21.7 5:36 29 29 Riverside CA
4 Ramirez,Carlos 264 17:49.8 17:49.2 5:45 36 35 Riverside CA
5 Flores,Nelson 136 19:58.0 19:39.6 6:21 67 60 Santa Ana CA
6 Nakama,Ken 1481 20:16.0 20:09.3 6:30 86 73 Irvine CA
7 Neal,Brian 1495 21:23.6 21:14.5 6:51 119 94 Irvine CA
8 Imler,Paul 1078 21:24.5 21:17.7 6:52 121 96 Irvine CA
9 Trupp,Josh 263 21:44.5 21:31.9 6:57 129 99 Riverside CA
10 Bonner,Jonah 432 21:41.3 21:34.0 6:57 130 100 Irvine CA
11 Cowls,Tyler 615 21:44.7 21:37.2 6:58 131 101 Irvine CA
12 Bustos,Luis 2176 21:47.0 21:45.2 7:01 137 105 Santa Ana CA
13 Cleland,Matt 261 22:49.3 22:36.8 7:18 163 125 Riverside CA
14 Briggs,Ethan 458 23:17.8 23:09.4 7:28 175 133 Aliso Viejo CA
15 Terner,Jarett 2957 23:42.3 23:30.0 7:35 190 144 Irvine CA
16 Salem,Kyle 2239 24:11.1 24:04.5 7:46 213 156 Irvine CA
17 Cavaalho,Brennan 2603 26:00.1 25:50.6 8:20 272 184 La Mirada CA
18 Takushi,Colin 1957 26:21.3 25:54.4 8:21 274 185 Irvine CA
19 Brinkley,Avery 460 26:30.0 26:15.4 8:28 292 198 Chino Hills CA
20 Parton,Graham 2805 26:28.9 26:19.2 8:29 296 200 Trabuco Canyon CA
21 Moyal,Raz 1467 27:02.1 26:55.6 8:41 318 209 Irvine CA
22 Berro,Rheise 2806 27:29.5 27:19.9 8:49 331 218 Trabuco Canyon CA
23 Rapacz,Hunter 1712 30:15.2 29:24.3 9:29 427 262 Anaheim CA
24 Zahl,Trevor 2158 30:30.3 30:04.5 9:42 447 269 Irvine CA
25 Klemek,Levi 1184 33:07.7 32:06.8 10:22 538 295 Irvine CA
26 M Padilla,Javier 2941 33:53.9 33:06.9 10:41 583 308 Downey CA
27 Abregov,Aidan 280 35:46.0 35:09.7 11:21 625 320 Mission Viejo CA
28 Acacio,Jose 128 37:37.4 37:07.4 11:59 665 332 Santa Ana CA
29 Derramadero,Armando 107 38:10.9 38:08.8 12:18 703 341 Santa Ana CA
Go To Top
15-18 Male
  Overall Overall State/
Place Name Bib Gun Tag Pace Place by Sex City County
1 Ferguson,Brandon 2864 15:31.5 15:31.4 5:00 2 2 Irvine CA
2 Gidabday,Sydney 2253 15:37.6 15:37.2 5:02 3 3 Orange CA
3 Berz,Brandon 269 15:55.9 15:55.8 5:08 7 7 Riverside CA
4 Casco,Joe 265 16:12.5 16:12.3 5:14 9 9 Riverside CA
5 Takekoshi,Nick 1954 16:59.9 16:56.7 5:28 18 18 Santa Ana CA
6 Parrish,Tyler 270 17:01.1 17:00.7 5:29 20 20 Riverside CA
7 Meier,Nathan 267 17:18.8 17:18.6 5:35 26 26 Riverside CA
8 Alford,Jimmy 2634 18:05.3 18:00.0 5:48 38 36 Irvine CA
9 Cleland,Mitchel 262 18:21.6 18:20.8 5:55 46 44 Riverside CA
10 Nitti,Connor 2862 18:40.6 18:39.7 6:01 49 46 Calabasas CA
11 Thatcher,Josh 1977 18:43.7 18:39.9 6:01 50 47 Irvine CA
12 Ronces,Jovanny 1769 19:49.6 19:47.9 6:23 74 66 Irvine CA
13 Castrejon,Jose 207 19:57.2 19:52.6 6:25 80 70 Santa Ana CA
14 Payne,Max 1615 20:53.7 20:47.1 6:42 103 84 Irvine CA
15 Mandelkern,Neil 1332 20:53.2 20:49.1 6:43 105 86 Irvine CA
16 Palmer,Glenn 1591 21:07.9 20:59.3 6:46 109 89 Gardena CA
17 Park,Joseph 2871 21:29.3 21:16.3 6:52 120 95
18 Jaffe,Eitan 2278 21:24.6 21:23.0 6:54 124 98
19 Mclinen,Jeff 1379 21:41.0 21:37.8 6:59 133 102
20 Magaņa,Matthew 1323 21:42.0 21:39.1 6:59 134 103 Irvine CA
21 Chae,Aaron 2849 22:02.2 21:58.8 7:05 141 107 Irvine CA
22 Tabb,Marcos 1949 22:15.1 22:04.9 7:07 142 108 Tustin CA
23 Remington,Michael 2289 22:26.9 22:13.6 7:10 149 112 Irvine CA
24 Mcnamara,Daniel 2784 22:22.3 22:13.7 7:10 150 113 Irvine CA
25 Randazzo,William 1710 22:31.2 22:19.4 7:12 153 116 Temple City CA
26 Klann,Harrison 2547 22:40.1 22:36.0 7:17 162 124 Santa Monica CA
27 Zubia,Jacob 2174 22:54.4 22:47.5 7:21 166 128 Santa Ana CA
28 Farr,Ramon 2549 23:24.1 23:11.4 7:29 178 136 Irvine CA
29 Opre,Jordan 1571 23:23.3 23:13.5 7:30 179 137 Irvine CA
30 Reddy,Anish 2859 23:23.4 23:13.6 7:30 180 138 Irvine CA
31 Prunty,Jack 1680 23:50.4 23:44.2 7:39 197 149 Irvine CA
32 Hardcastle,James 959 24:14.7 24:04.5 7:46 212 155 Irvine CA
33 Nguyen,Kyle 1508 24:20.4 24:16.1 7:50 219 159 Irvine CA
34 Lieberman,Aaron 1266 24:38.2 24:29.1 7:54 224 160 Irvine CA
35 Figueroa,Laureano 210 25:14.6 25:09.7 8:07 244 167 Santa Ana CA
36 Sanders,Noah 221 25:17.8 25:13.1 8:08 248 170 Santa Ana CA
37 Mendoza,Eder 217 25:36.5 25:33.9 8:15 257 177 Santa Ana CA
38 Brackett,Shay 447 26:01.0 25:56.2 8:22 276 186 Irvine CA
39 Figueroa,Mitchell 211 26:32.2 26:27.1 8:32 303 202 Santa Ana CA
40 Marx,Michael 1353 26:59.2 26:54.4 8:41 317 208 Irvine CA
41 Martin,Bailey 2602 27:47.2 27:42.1 8:56 347 227 Irvine CA
42 Martinez,Chris 1346 28:16.2 28:11.4 9:06 372 242 Irvine CA
43 Karimi,Bryan 2677 28:41.5 28:35.9 9:14 395 252 Irvine CA
44 O'connell,Preston 1544 29:55.8 29:46.0 9:36 436 265 Anaheim CA
45 Barank,Roi 369 30:21.0 29:53.0 9:38 439 266 Irvine CA
46 Chen,William 551 30:19.3 30:14.0 9:45 458 271 Irvine CA
47 Wolfe,Nicholas 2118 32:23.3 31:27.6 10:09 510 287 Garden Grove CA
48 Jewell,Jesse 1104 33:12.6 32:34.9 10:31 561 300 Anaheim Hills CA
49 Sadigh,Shayan 1794 32:41.1 32:35.0 10:31 562 301 Irvine CA
50 Martin,Connor 2951 33:45.9 33:05.4 10:40 581 307 Irvine CA
51 Lepatan,Colin 1256 35:25.3 35:19.1 11:24 629 322 Irvine CA
52 Tran,Dave 2001 35:26.4 35:21.8 11:24 630 323 Tustin CA
53 Melchor,Hugo 4446 35:46.6 35:25.1 11:26 631 324 Chatsworth CA
54 Noblitt,Nathan 1527 38:30.5 37:28.4 12:05 683 338 Irvine CA
55 Douglas,Parker 2847 38:47.4 37:47.3 12:11 691 339 Orange CA
56 Solomon,Troy 1893 47:17.5 47:03.5 15:11 814 375 Irvine CA
57 Ibarra,Ben 6115 1:41:01.8 1:28:18.4 28:29 946 415 Sunland CA
58 Salome,Alejandro 5279 1:51:35.5 1:37:36.6 31:29 950 418 Los Angeles CA
59 Aispuro,Ascencion 4074 1:38:55.8 1:38:55.8 31:55 951 419 Bell CA
60 Mendias,Johnathon 6301 1:55:06.8 1:40:55.8 32:33 952 420 North Hills CA
61 Osoria,Eduwiges (junior) 6768 1:56:24.5 1:45:07.1 33:55 954 422 Chatsworth CA
62 Vasquez,Jose 4102 1:47:33.9 1:47:33.9 34:42 957 425 Bell CA
Go To Top
19-24 Male
  Overall Overall State/
Place Name Bib Gun Tag Pace Place by Sex City County
1 Hannah,Joseph 955 16:27.5 16:27.1 5:18 13 13 La Habra CA
2 Santana,Robby 1822 17:03.5 17:03.3 5:30 21 21 La Habra A
3 Johnson,Matt 1114 17:29.9 17:08.1 5:32 22 22 Lake Forest CA
4 Tran,Andy 2000 17:27.1 17:26.8 5:38 30 30 Garden Grove CA
5 Clark,Travis 578 17:45.3 17:44.1 5:43 34 34 Yucaipa CA
6 Goodman,Kyle 901 18:49.0 18:45.3 6:03 53 49 Upland CA
7 Banh,Timothy 366 20:34.2 20:26.2 6:36 94 77 Irvine CA
8 Daar,David 635 21:32.2 21:01.0 6:47 110 90 Newport Beach CA
9 Alexander,Brenton 299 21:38.9 21:07.5 6:49 116 93 Newport Beach CA
10 Barcimo,Brent 372 22:58.4 22:44.4 7:20 165 127 Corona CA
11 Atkinson,Troy 344 26:01.0 25:46.7 8:19 267 181 Mission Viejo CA
12 Thomas,Phillip 1986 31:39.4 28:54.1 9:19 407 256 Orange CA
13 Geller,Max 859 29:43.5 29:17.3 9:27 420 259 Santa Fe Springs CA
14 Horn,John 1039 30:07.8 30:07.8 9:43 452 270 Lemon Grove CA
15 Lee,David 1243 31:18.8 30:23.6 9:48 467 275 Irvine CA
16 Cheng,Kyle 553 30:58.7 30:35.5 9:52 478 278 Tustin CA
17 Soriano,Lawrence 2655 34:32.1 34:09.5 11:01 607 313 Lancaster CA
18 Deang,Joshua 2445 40:58.7 40:19.7 13:01 729 351 Aliso Viejo CA
19 Chien,Brett 556 55:28.7 55:03.7 17:46 893 398 Tustin CA
20 Webb,Renaldo 2074 58:40.4 57:02.7 18:24 907 404 Newport Beach CA
21 Martinez,Tony Martinez 2736 1:10:28.4 1:10:28.4 22:44 944 413 Los Angeles CA
22 Garcia,Fernando 6297 1:59:19.2 1:45:07.6 33:55 955 423 North Hills CA
23 Guadarrama,Uriel 2719 1:55:48.2 1:55:48.2 37:21 960 428 Santa Ana CA
Go To Top
25-29 Male
  Overall Overall State/
Place Name Bib Gun Tag Pace Place by Sex City County
1 Newman,Eric 1501 18:49.3 18:44.8 6:03 52 48 Laguna Niguel CA
2 Kayala,Matthew 1151 19:19.3 19:17.0 6:13 59 53 Irvine CA
3 Hutton,Phillip 1070 19:18.0 19:18.0 6:14 60 54 Tustin CA
4 Zeller,Michael 2763 19:53.0 19:50.5 6:24 77 68
5 Anker,Cody 324 23:20.7 23:14.9 7:30 182 139 Chino CA
6 Niven,Dain 1524 23:40.0 23:24.3 7:33 186 143 Laguna Hills CA
7 Banh,Vince 367 24:44.2 24:35.9 7:56 228 162 Irvine CA
8 Kurauchi,Seiji 1210 26:31.5 25:02.0 8:05 240 166 Costa Mesa CA
9 Reynolds,Christopher 1727 25:36.4 25:10.6 8:07 246 169 Costa Mesa CA
10 Sirignano,Keith 1875 25:53.5 25:31.8 8:14 256 176 Irvine CA
11 Channita,Bryant 541 28:32.7 26:02.0 8:24 282 191 Garden Grove CA
12 Rothaug,Brian 1777 28:54.9 27:54.2 9:00 356 233 Santa Monica CA
13 Escalera,Alberto 749 28:52.9 27:58.0 9:01 360 235 Santa Ana CA
14 Nguyen,Do 2217 28:45.3 28:20.3 9:08 381 245 Costa Mesa CA
15 Blickenstaff,Jacob 422 30:10.6 29:12.9 9:25 418 257 Newport Beach CA
16 Quinn,Matt 1692 32:09.3 29:23.9 9:29 426 261 Irvine CA
17 Vega,Rene 2042 30:18.8 30:15.0 9:46 461 273 Santa Ana CA
18 Guirindola,Salvador 931 32:08.1 30:59.3 10:00 493 281 Buena Park CA
19 Polopek,Corey 1658 33:40.1 32:49.5 10:35 570 303 Rancho Santa Margari CA
20 Burch,Jacob 474 39:12.2 38:32.5 12:26 707 342 Valencia CA
21 Chang,Miles 537 40:22.1 39:57.6 12:53 723 348 Tustin CA
22 Maliga,Sasualei 1329 42:10.5 41:55.2 13:31 750 355 Garden Grove CA
23 Duenas,Jennifer 5572 44:45.8 43:33.8 14:03 774 363 Los Angeles CA
24 Forbes,Zachary 798 44:41.4 43:47.4 14:08 777 365 Los Angeles CA
25 Montagnino,Jimmy 1440 44:58.8 44:03.6 14:13 781 367 Orange CA
26 Mares,Alex 1338 47:10.5 46:16.6 14:56 806 374 Los Angeles CA
27 Pontoni,Andrew 1659 51:03.7 50:29.9 16:17 860 390 San Juan Capistran CA
28 Shehabi,Omar 1857 1:58:16.6 1:58:16.6 38:09 961 429 Santa Monica CA
Go To Top
30-34 Male
  Overall Overall State/
Place Name Bib Gun Tag Pace Place by Sex City County
1 Hernandez,Gabe 2776 15:29.4 15:29.4 5:00 1 1 Newport Beach CA
2 Morales,Juan 2489 16:14.9 16:14.0 5:14 11 11 Huntington Beach CA
3 Cox,Trevor 2307 16:35.8 16:35.4 5:21 15 15 Lakewood CA
4 Bcca,Leonel 2252 17:22.9 17:21.6 5:36 28 28 Santa Ana CA
5 Hunt-higgins,Tim 1062 22:44.2 22:27.7 7:15 160 122 Newport Beach CA
6 Mori,Fukutaro 1453 23:19.0 23:08.3 7:28 173 131 Irvine CA
7 Morton,Timothy 1462 23:42.1 23:09.9 7:28 176 134 Reno NV
8 Donahue,Tom 688 23:23.7 23:16.5 7:31 184 141 Ladera Ranch CA
9 Jordan,Paul 215 24:17.4 24:11.5 7:48 218 158 Santa Ana CA
10 Thiphavong,Saeng 1981 27:43.0 26:36.1 8:35 308 204 Costa Mesa CA
11 Lemus,Rudy 2735 27:56.6 27:42.0 8:56 346 226 Woodland Hills CA
12 Marquez,Vince 2297 28:29.0 28:29.0 9:11 387 248 Long Beach CA
13 Flynn,Daniel 793 30:27.1 28:46.0 9:17 402 253 Costa Mesa CA
14 Vallandigham,Chris 2033 30:54.1 30:01.5 9:41 444 268 Orange CA
15 Dulgerov,Ilia 699 30:56.7 30:30.4 9:50 473 276 Santa Ana CA
16 Delo,William 2715 31:45.6 31:09.6 10:03 497 282 Irvine CA
17 Lu,Jente 1298 33:37.8 33:16.0 10:44 589 309 Tustin CA
18 Nielsen,Lisa 1515 34:10.5 33:49.8 10:55 603 312 Riverside CA
19 Damico,Nick 2892 34:55.9 34:29.4 11:08 610 315 La Habra CA
20 Orozco,Neptali 2321 34:59.2 34:59.2 11:17 622 318 Los Angeles CA
21 Rogers,Adam 1763 36:43.5 35:39.7 11:30 634 326 Irvine CA
22 Davis,Brandon 651 37:47.4 37:01.9 11:57 662 331 Sherman Oaks CA
23 Carandang,Rey 503 42:16.0 41:02.2 13:14 736 352 Costa Mesa CA
24 Ramirez,Dannie 1703 48:11.9 45:03.8 14:32 792 369 Monrovia CA
25 Ball,Mike 2894 48:33.2 48:33.2 15:40 833 378 Walnut CA
26 Kalayji,Nazar 2565 49:05.3 48:39.6 15:42 836 380
27 Swaroop,Prem 1941 51:33.2 49:26.7 15:57 847 385 Irvine CA
28 Chang,Alex 536 58:42.9 58:14.4 18:47 911 405 Tustin CA
29 Engen,Ryan 737 1:00:00.4 58:49.4 18:59 918 408 Irvine CA
30 Onishi 4,Kentaro 1569 1:48:26.7 1:37:17.1 31:23 948 417 Downey CA
31 Trowbridge,Jesse 2011 1:53:26.5 1:53:26.5 36:36 959 427 Dana Point CA
Go To Top
35-39 Male
  Overall Overall State/
Place Name Bib Gun Tag Pace Place by Sex City County
1 Morales,Cobi 2909 15:41.9 15:41.4 5:04 5 5 Miami FL
2 Sanchez,Martin 2541 16:59.4 16:58.4 5:29 19 19 Los Angeles CA
3 Patterson,Noah 1610 17:28.1 17:27.5 5:38 31 31 San Diego CA
4 Medina,Carlos 1389 19:07.3 19:05.7 6:10 56 51 Irvine CA
5 Chavez,Hector 132 20:44.6 20:41.5 6:40 102 83 Santa Ana CA
6 Knollmiller,Steve 1190 24:00.9 23:55.2 7:43 206 152 Irvine CA
7 Saunders,William 2625 24:48.0 24:33.4 7:55 227 161 Irvine CA
8 Farnham,Paul 766 24:58.0 24:37.9 7:57 229 163 Corona CA
9 Edwards,Bruce 720 24:57.8 24:53.6 8:02 236 164 Santa Monica CA
10 Gordon,Brian 905 25:45.2 25:36.2 8:16 260 179 Santa Ana CA
11 Chang,Parke 538 26:54.2 26:05.2 8:25 287 194 Irvine CA
12 A Ga Kondy,Naga 2681 27:46.1 26:58.7 8:42 320 211 Irvine CA
13 Baranda,Jorge 368 27:25.9 27:17.8 8:48 329 216 Irvine CA
14 Gordon,Jeff 907 27:35.1 27:22.8 8:50 335 220 Costa Mesa CA
15 Mathews,Rogers 2510 27:25.7 27:25.7 8:51 338 222 Corona CA
16 Gamatero,Michael 836 29:47.1 27:52.0 8:59 355 232 Irvine CA
17 Lutkus,Alex 2886 29:15.7 28:49.5 9:18 406 255 Yorba Linda CA
18 Zolfagari,Ramin 2422 31:14.8 30:42.0 9:54 482 279 Huntington Beach CA
19 Otaki,Yoshitake 1579 33:08.0 31:52.5 10:17 529 292 Ladera Ranch CA
20 Nepomuceno,Ed 1499 32:51.1 32:02.0 10:20 536 294 La Palma CA
21 Mondejar,Romeo 2879 34:02.5 33:47.5 10:54 602 311 Glendora CA
22 Ball,Eric 2789 35:01.4 34:37.7 11:10 615 316 Irvine CA
23 Provenghi,Michael 1679 37:42.3 36:36.6 11:49 649 330 Cypress CA
24 Banez,Allan Ross 363 38:11.5 37:08.3 11:59 667 333 Yorba Linda CA
25 Lopez,Gilbert 2942 44:35.7 40:15.7 12:59 726 349 Long Beach CA
26 Atarian,Vicken 340 48:55.9 42:54.6 13:51 762 360 Corona CA
27 Guzman,Javier 938 48:07.8 47:05.8 15:12 816 376 San Jacinto CA
28 Horey,Justin 1036 49:51.3 48:37.5 15:41 834 379 Irvine CA
29 Villaverde,Justin 2050 52:20.9 50:32.6 16:18 863 392 Anaheim CA
30 Winter,Mitch 2823 54:02.6 51:11.3 16:31 868 394 Irvine CA
31 Padilla,Javier 2936 56:48.3 55:41.5 17:58 898 400
32 Perez,Juan 2281 1:11:13.3 56:38.5 18:16 901 401
33 Sallberg,Jacques 1806 1:06:53.3 1:06:53.3 21:35 936 411 Pasadena CA
34 Delgado,Juan 671 1:07:23.8 1:07:23.8 21:44 941 412 Monrovia CA
35 Otaki,Yoshitake 1580 1:35:40.9 1:35:40.9 30:52 947 416 Ladera Ranch Ca CA
Go To Top
40-44 Male
  Overall Overall State/
Place Name Bib Gun Tag Pace Place by Sex City County
1 Ramirez,Juan 2251 16:01.7 16:00.7 5:10 8 8 Orange CA
2 Frisone,Steve 2472 16:17.1 16:16.5 5:15 12 12 Placentia CA
3 Tregillis,Chris 2494 16:42.4 16:41.9 5:23 16 16
4 Wobie,Brad 2116 18:05.6 18:04.3 5:50 40 38
5 Santoyo,Enrique 1824 18:18.4 18:17.7 5:54 44 42 Santa Ana CA
6 Hemphill,Gregg 981 18:40.4 18:39.5 6:01 48 45 Ladera Ranch CA
7 Hood,Matt 2939 19:41.7 19:40.9 6:21 68 61 Irvine CA
8 Boothroyd,Keith 2630 19:57.1 19:50.6 6:24 78 69 Irvine CA
9 Cerrato,Shane 2218 19:58.3 19:55.4 6:26 85 72 Irvine CA
10 Mayes,Donavan 2797 20:16.4 20:13.7 6:32 88 74 Newport Beach CA
11 Derway,Daniel 2299 20:37.8 20:36.3 6:39 97 79 Orange CA
12 Nate,Miller 2186 20:53.7 20:38.9 6:40 100 82 Irvine CA
13 Magtoto,Paul 1325 21:14.5 21:06.6 6:49 115 92 La Canada CA
14 Marger,Michael 2280 21:49.9 21:43.8 7:01 136 104 Tustin CA
15 Thomas,David 1983 23:18.3 22:37.7 7:18 164 126 Riverside CA
16 Feinerman,Gregg 772 23:07.7 23:04.2 7:27 172 130 Newport Beach CA
17 Holley,Steve 2680 23:15.5 23:10.5 7:29 177 135 Costa Mesa CA
18 Boucher,Chris 438 23:53.3 23:42.0 7:39 196 148 Irvine CA
19 Huffstutter,Greg 1059 24:04.4 23:49.0 7:41 201 150 Costa Mesa CA
20 Angier,David 322 25:13.2 25:09.9 8:07 245 168 North Tustin CA
21 Escoubas,Brent 2319 26:29.7 25:57.9 8:23 277 187 Aliso Viejo CA
22 Gentile,Nick 109 26:57.9 26:37.4 8:35 309 205 Santa Ana CA
23 Lotosky,Sergey 1291 27:59.0 27:50.6 8:59 353 230 Long Beach CA
24 Stefanos,Hany 1917 29:30.9 28:22.7 9:09 382 246 Fountain Valley CA
25 Hamashima,Shoichi 948 32:55.2 32:26.7 10:28 551 297 Redondo Beach CA
26 Smith,Jason 1885 36:59.9 36:27.8 11:46 644 328 Irvine CA
27 Rhoda,Jason 2813 38:08.7 37:51.9 12:13 696 340 Irvine CA
28 Mccall,Russell 1367 40:55.1 39:17.1 12:40 717 345 Orange CA
29 Houston,Edward 1045 40:10.7 39:46.6 12:50 718 346 San Pedro CA
30 Lopez,Robert 1289 42:26.2 42:07.6 13:35 753 356 Buena Park CA
31 Ohnemus,Jim 1560 51:20.1 50:16.6 16:13 855 389 Irvine CA
32 Ando,Takeshi 319 1:59:16.5 1:59:10.4 38:27 962 430 Irvine CA
Go To Top
45-49 Male
  Overall Overall State/
Place Name Bib Gun Tag Pace Place by Sex City County
1 Nitti,Joe 1523 15:38.6 15:38.3 5:03 4 4 Calabasas CA
2 Arsenault,Dan 335 16:14.6 16:13.7 5:14 10 10 Santa Ana CA
3 Ensign,Cort 2488 17:12.1 17:11.8 5:33 25 25
4 Hughes,Curt 2728 18:04.7 18:04.0 5:50 39 37 Newport Beach CA
5 Stanley,Bryan 1911 19:36.9 19:32.6 6:18 64 57 Huntington Beach CA
6 Ryan,Dennis 1791 19:36.7 19:34.6 6:19 66 59 Long Beach CA
7 Peters,Brad 275 19:53.0 19:50.0 6:24 76 67 Riverside CA
8 Donald,Robert 689 19:55.8 19:53.1 6:25 84 71 Newport Beach CA
9 Hansen,Greg 956 20:40.5 20:36.8 6:39 98 80 Irvine CA
10 Friedl,Michael 2325 20:39.6 20:37.2 6:39 99 81
11 Arney,Phil 2685 22:18.1 22:13.4 7:10 148 111 Costa Mesa CA
12 Menke,Zachary 1403 22:30.8 22:23.3 7:13 155 118 Long Beach CA
13 Perret,Bruce 1638 22:40.2 22:32.6 7:16 161 123 Costa Mesa CA
14 Solomon,James 1892 23:37.4 23:16.0 7:30 183 140 Irvine CA
15 Abad,Ernest 278 26:04.9 25:13.9 8:08 250 171 Irvine CA
16 Liu,Ted 1276 25:39.8 25:36.8 8:16 261 180 Alhambra CA
17 Hurson,Kieran 2934 26:02.2 25:48.3 8:19 270 182 Irvine CA
18 Lieberman,Martin 1267 26:17.6 26:01.5 8:24 281 190 Irvine CA
19 Cowls,Stephen 614 27:03.5 26:48.6 8:39 312 206 Irvine CA
20 Henderson,Charles 982 27:14.6 26:57.6 8:42 319 210 Rancho Santa Margari CA
21 Laveaga,Alberto 2519 27:15.1 27:01.1 8:43 321 212 Irvine CA
22 Borland,Dan 435 27:35.8 27:17.6 8:48 328 215 Irvine CA
23 Imler,Laurent 1077 28:00.2 27:49.7 8:59 352 229 Irvine CA
24 Daley,Brian 2207 29:48.2 29:13.0 9:25 419 258 Irvine CA
25 Papenfus,Chuck 1595 32:11.7 31:42.8 10:14 516 290 Ladera Ranch CA
26 Mokhtari,Frank 2816 33:07.5 32:32.9 10:30 559 299 Irvine CA
27 Abregov,Aslan (oz) 281 35:49.0 35:12.4 11:21 626 321 Mission Viejo CA
28 Stokes,Colin 1931 37:58.0 37:10.1 11:59 672 335 Mission Viejo CA
29 Browder,Don 462 38:00.2 37:23.8 12:04 681 337 Anaheim CA
30 Kaegi,Miles 1131 40:52.6 39:54.4 12:52 722 347 Aliso Viejo CA
31 Arreola,Jerry 333 42:10.3 41:40.2 13:27 744 354 Tustin CA
32 Thomas,Daniel 1982 43:00.7 42:16.3 13:38 755 358 Chino Hills CA
33 Saxon,Mark 1829 48:42.6 48:06.4 15:31 828 377 Tustin CA
34 Kopecky,Scott 2810 49:11.9 48:44.6 15:43 838 381 Irvine CA
35 Komiyama,Takeshi 2854 49:24.5 48:50.3 15:45 841 382 Palos Verdes Peninsu CA
36 Rivera,Albert 1741 51:41.5 50:59.4 16:27 865 393 Chino CA
37 Burke,Kevin 2497 57:03.3 54:31.0 17:35 885 397 Corona CA
38 Wagner,Derrick 2060 56:12.8 55:32.4 17:55 895 399 Tustin CA
39 Vara,Jose 2287 1:23:18.0 1:23:18.0 26:52 945 414 Montebello CA
Go To Top
50-54 Male
  Overall Overall State/
Place Name Bib Gun Tag Pace Place by Sex City County
1 Ernst,Ken 2919 15:46.0 15:45.6 5:05 6 6 Mission Viejo CA
2 Hulme,Mark 2967 17:33.3 17:32.0 5:39 32 32 Tustin CA
3 Jaggers,Chris 1092 17:43.0 17:42.6 5:43 33 33 Yorba Linda CA
4 Atterholt,Ken 345 18:18.6 18:17.9 5:54 45 43 Irvine CA
5 Williams,Craig 2479 19:00.2 18:58.6 6:07 55 50 Newport Beach CA
6 Fujii,Ford 822 20:50.2 20:47.7 6:42 104 85 Irvine CA
7 Stangl,Barry 2911 20:58.8 20:52.7 6:44 106 87 San Clemente CA
8 Dubon,Yuri 2904 21:26.3 21:21.8 6:54 122 97 Perris CA
9 Kennedy,Brad 1161 23:04.2 22:57.0 7:24 169 129 Brea CA
10 Katragadda,Ramana 1148 23:34.1 23:23.9 7:33 185 142 Carlsbad CA
11 Lehmer,Randy 1252 26:15.7 26:09.7 8:26 288 195 Coto De Caza CA
12 Parton,Brad 2804 26:34.9 26:24.7 8:31 299 201 Trabuco Canyon CA
13 Sternberg,Robert 2972 26:48.6 26:28.5 8:32 305 203 Huntington Beach CA
14 Peck,Brian 1618 27:54.0 27:14.6 8:47 325 214 Lake Forest CA
15 White,Sam 2093 27:40.4 27:18.0 8:48 330 217 Temecula CA
16 Salzle,Michael 2274 27:32.7 27:24.9 8:51 336 221 Laguna Hills CA
17 Boyle,James 2246 28:14.2 27:45.4 8:57 349 228 Irvine CA
18 Garcia,Al 840 28:29.6 28:10.6 9:05 371 241 Lomita CA
19 Erickson,David 744 29:00.7 28:27.2 9:11 383 247 Cypress CA
20 Walton,Jim 2224 30:17.4 30:00.7 9:41 441 267 Irvine CA
21 Bonner,Charles 431 31:33.4 31:17.9 10:06 502 284 Irvine CA
22 Orel,Steve 1572 33:18.4 32:55.0 10:37 573 305 Lake Forest CA
23 Salgado,Daniel 1800 36:19.8 35:50.4 11:34 637 327 Tustin CA
24 Crockett,David 166 49:26.3 43:39.2 14:05 776 364 Mission Viejo 92692 CA
25 Rapacz,Michael 1713 45:57.1 45:06.1 14:33 793 370 Anaheim CA
26 Riley,Willie 1739 55:52.3 51:59.8 16:46 875 395 Perris CA
27 Crews,Robert 624 58:01.5 56:50.7 18:20 904 402 Irvine CA
28 Dupray,Brad 704 59:58.2 58:38.3 18:55 914 406 Irvine CA
Go To Top
55-59 Male
  Overall Overall State/
Place Name Bib Gun Tag Pace Place by Sex City County
1 Parsel,Dave 1603 18:17.6 18:16.5 5:54 43 41 Costa Mesa CA
2 Nitti,Gary 2861 19:18.0 19:16.6 6:13 58 52 Calabasas CA
3 Mcquown,Bill 2601 19:33.8 19:32.4 6:18 63 56 Rancho Santa Margari CA
4 Ideker,Stan 1075 19:46.3 19:44.6 6:22 72 64 San Diego CA
5 Albright,Tom 296 19:48.7 19:47.2 6:23 73 65 Newport Beach CA
6 Morris,Bob 1454 20:25.4 20:24.4 6:35 93 76
7 Lassegard,Steve 1232 20:32.9 20:31.4 6:37 96 78 Laguna Hills CA
8 Frost,Tom 2482 20:57.0 20:55.2 6:45 107 88 Rancho Santa Margari CA
9 Baum,Mark 388 21:56.5 21:49.9 7:03 139 106 Pasadena CA
10 Salzman,Mike 1810 22:19.3 22:17.8 7:12 152 115 Irvine CA
11 Tipping,Mike 2610 23:10.6 23:08.7 7:28 174 132 Irvine CA
12 Smith,Bradford 1882 23:34.8 23:31.2 7:35 191 145 Newport Beach CA
13 Braden,Rex 2421 23:50.8 23:40.1 7:38 193 146 Irvine CA
14 Valenzuela,Victor 2031 24:07.5 23:59.3 7:44 209 154 Orange CA
15 Blevins,Gregory 421 24:16.6 24:06.2 7:47 214 157 Irvine CA
16 Nahm,Steve 1479 25:17.7 25:14.3 8:09 251 172 Laguna Beach CA
17 Lehmer,Barry 2306 26:06.4 26:00.2 8:23 279 189 Encinitas CA
18 Jarrett,Michael 2245 26:29.3 26:18.4 8:29 294 199 Foothill Ranch CA
19 Tanizaki,Dave 2671 27:49.2 27:20.9 8:49 333 219 Los Angeles CA
20 Iwanaga,Rick 2461 28:12.4 27:57.9 9:01 359 234 Diamond Bar CA
21 Ridenour,Ronnie 1735 29:25.0 28:29.7 9:12 388 249 Anaheim Hills CA
22 Nakamura,Kirk 1483 29:08.2 28:35.0 9:13 394 251 Yorba Linda CA
23 Duff,Brian 697 32:20.9 31:56.9 10:18 532 293 Costa Mesa CA
24 Noblitt,Brent 1526 41:17.9 40:15.9 12:59 727 350 Irvine CA
25 O'connell,Brian 1543 43:53.0 43:01.7 13:53 765 361 Irvine CA
26 Lee,Bruce 1240 49:37.5 49:00.6 15:49 843 383 Tustin CA
27 Young,Jimmy 2150 50:20.0 49:53.6 16:06 850 387 Tustin CA
28 Cech,Alan 528 51:04.9 50:00.8 16:08 852 388 Irvine CA
29 Hunter,Jeffery 1063 51:41.8 50:30.4 16:18 861 391
30 Montoya,Daniel 2473 57:58.9 56:56.0 18:22 905 403 Alhambra CA
31 Schroth,Steve 1839 59:55.8 58:42.0 18:56 917 407 Irvine CA
32 Chambers,Ethel 2381 1:03:44.6 1:00:11.9 19:25 924 409 Thousand Oaks CA
33 Potter,Doug 1666 1:43:55.9 1:43:55.9 33:32 953 421 Villa Park CA
Go To Top
60-64 Male
  Overall Overall State/
Place Name Bib Gun Tag Pace Place by Sex City County
1 Salzman,Jeff 1809 19:34.5 19:32.9 6:18 65 58 Irvine CA
2 Shapiro,Gary 1854 19:43.9 19:42.1 6:21 70 62 Irvine CA
3 Sumner,William 2775 20:20.7 20:19.9 6:34 91 75 Newport Beach CA
4 Schij,Gabriel 2534 23:44.7 23:40.4 7:38 194 147
5 Innis,Craig 1080 25:37.4 25:21.0 8:11 253 173 Rancho Santa Margari CA
6 Baca,David 353 25:37.5 25:28.3 8:13 255 175 Santa Clarita CA
7 Manaka,Steve 2221 25:34.1 25:34.1 8:15 258 178 Simi Valley CA
8 Barry,John 2535 26:26.7 26:10.4 8:27 289 196 Long Beach CA
9 Riehle,William 1737 28:31.8 27:40.2 8:56 344 225 Anaheim CA
10 Clayfield,Peter 582 28:57.9 28:18.7 9:08 377 244 Irvine CA
11 Horton,Lee 1040 29:41.9 29:29.3 9:31 429 263 Santa Ana CA
12 Johnson,Doug 1111 34:10.0 33:33.1 10:49 596 310 Fountain Valley CA
13 Gordon,George 906 37:23.3 36:36.0 11:48 647 329 Mission Viejo CO
14 Wickersham,Frank 2097 41:45.1 41:08.6 13:16 739 353 Orange CA
15 Watanabe,Michael 2070 43:00.1 42:10.8 13:36 754 357 Tustin CA
16 Mirshafiee,David 1426 44:38.3 44:01.2 14:12 779 366 Irvine CA
17 Valentine,Dave 2026 49:36.8 49:01.2 15:49 844 384 Tustin CA
Go To Top
65-69 Male
  Overall Overall State/
Place Name Bib Gun Tag Pace Place by Sex City County
1 Pitts,Lee 1651 25:38.0 25:27.6 8:13 254 174 Long Beach CA
2 Trevor,Brian 2006 27:41.3 27:33.0 8:53 340 223 Upland CA
3 Brown,John 2521 28:15.5 27:59.0 9:02 363 237 Oceanside CA
4 Blakesley,David 419 28:49.3 28:34.8 9:13 393 250 Foothill Ranch CA
5 Lemire,Tom 2614 31:29.9 31:12.7 10:04 498 283 Irvine CA
6 Sirignano,Tom 1876 33:18.3 32:54.8 10:37 572 304 Lake Forest CA
7 Zomorodian,Manoochehr 2169 39:07.7 39:07.7 12:37 715 344 Irvine CA
8 Goman,Donald 889 45:32.4 44:53.5 14:29 789 368 Long Beach CA
9 Matthews,Bill 1360 1:02:07.2 1:00:46.0 19:36 927 410 Irvine CA
Go To Top
70-74 Male
  Overall Overall State/
Place Name Bib Gun Tag Pace Place by Sex City County
1 Norton,Bob 1533 26:19.0 26:12.4 8:27 290 197
2 Bridges,Terry 457 27:56.1 27:34.0 8:54 341 224 Newport Beach CA
3 Ncio Fhing,Flor 2486 45:35.1 45:14.4 14:36 794 371 Santa Ana CA
4 Qavi,Mohammed 1686 46:30.6 45:50.3 14:47 802 373 Chino Hills CA
5 Michel,Robert 1414 50:40.4 49:41.9 16:02 849 386 Irvine CA
Go To Top
75-79 Male
  Overall Overall State/
Place Name Bib Gun Tag Pace Place by Sex City County
1 Warren,Allen 2210 28:26.3 28:07.6 9:04 370 240 Newport Beach CA
2 Salkin,Edward 1805 34:28.3 34:15.3 11:03 608 314 Corona Del Mar CA
3 Walsh,Jerry 2066 39:05.5 38:37.6 12:28 708 343 Anaheim CA
4 Alderson,Roger 298 43:57.1 43:01.8 13:53 766 362 Laguna Beach CA
Go To Top
80-99 Male
  Overall Overall State/
Place Name Bib Gun Tag Pace Place by Sex City County
1 Kohler,Bob 2502 32:17.9 31:50.0 10:16 523 291 Dana Point CA
Go To Top
Age Unknown - Female
  Overall Overall State/
Place Name Bib Gun Tag Pace Place by Sex City County
1 Rios,Leilani 1740 17:59.1 17:58.0 5:48 37 2 Coto De Caza CA
2 Coopermeyer,Anet 599 21:46.4 21:42.2 7:00 135 32 Tustin CA
3 Goodman,Ayako 899 27:33.1 27:21.3 8:49 334 115 Laguna Hills CA
4 Lee,Amy 66 29:31.2 29:21.5 9:28 422 163 Brea CA
5 Polley,Kim 1657 41:52.2 41:52.2 13:30 747 393 Costa Mesa CA
6 Beccrra,Eliza 393 47:02.5 46:53.8 15:08 812 438 Gardena CA
Go To Top
1-8 Female
  Overall Overall State/
Place Name Bib Gun Tag Pace Place by Sex City County
1 ^\vera,Lizzette 2639 30:31.6 30:17.2 9:46 462 189 Irvine CA
2 Tognetti,Serenity 1991 33:16.0 33:04.2 10:40 580 274 Phelan CA
3 Hamilton,Kennedy 2234 38:52.9 37:52.8 12:13 697 357 Orange CA
4 Perez,Nadia 1630 48:23.9 47:38.9 15:22 824 448 Whittier CA
5 Lee,Debbie 1244 50:19.6 49:56.4 16:07 851 464 Tustin CA
Go To Top
9-10 Female
  Overall Overall State/
Place Name Bib Gun Tag Pace Place by Sex City County
1 Phillips,Cammi 1644 26:33.8 26:24.8 8:31 300 99 Aliso Viejo CA
2 Komrosky,Chloe 2147 26:54.9 26:45.9 8:38 311 106 Mission Viejo CA
3 Perez,Ivana 1626 29:12.3 28:30.8 9:12 390 141 Whittier CA
4 Creamer,Minami 2640 31:55.5 31:43.2 10:14 517 227 Irvine CA
5 Hamashima,Hina 947 32:54.6 32:25.9 10:28 548 253 Redondo Beach CA
6 Tognetti,Ariana 1990 33:42.8 33:31.6 10:49 595 286 Phelan CA
7 Kopecky,Morgan 2812 37:58.1 37:41.5 12:10 688 350 Irvine CA
8 Nunez,Vanessa 1539 38:18.4 38:07.1 12:18 701 361 Wilmington CA
Go To Top
11-12 Female
  Overall Overall State/
Place Name Bib Gun Tag Pace Place by Sex City County
1 Leon,Sophie 2910 24:19.7 24:10.0 7:48 216 59 Irvine CA
2 Valdez,Rocio 2185 25:16.9 25:13.3 8:08 249 79 Santa Ana CA
3 Hurson,Sierra 2933 26:02.0 25:48.0 8:19 269 88 Irvine CA
4 Matterson,Natalie 1359 26:31.1 26:22.6 8:31 298 98 Aliso Viejo CA
5 Martinez,Marleny 2180 29:00.9 28:58.9 9:21 411 155 Santa Ana CA
6 Alvarez,Paula 129 29:02.7 29:01.6 9:22 412 156 Santa Ana CA
7 Avila,Kimberly 2175 29:12.7 29:09.3 9:24 415 159 Santa Ana CA
8 Daley,Ann 2206 29:47.2 29:11.9 9:25 417 161 Irvine CA
9 Rivera,Kate 151 29:38.4 29:20.9 9:28 421 162 Santa Ana CA
10 Salemme,Ellen 2837 29:58.0 29:48.4 9:37 438 173 Irvine CA
11 Butcher,Samantha 2836 30:17.4 30:08.0 9:43 454 184 Irvine CA
12 Salgado,Melissa 1801 31:50.3 31:20.8 10:07 508 223 Mission Viejo CA
13 Contreras,Itzel 2178 31:55.7 31:52.1 10:17 528 237 Santa Ana CA
14 Lund,Samantha 2203 33:55.7 33:16.1 10:44 590 281 Trabuco Canyon CA
15 Hoffman,Lindsie 1028 34:24.9 33:41.6 10:52 600 290 Newport Beach CA
16 Nunez,Cazandra 146 34:16.6 34:15.7 11:03 609 295 Santa Ana CA
17 Gardner,Alessandra 848 36:00.5 35:19.0 11:24 628 307 Foothill Ranch CA
18 Nunez,Diana 147 35:41.4 35:40.8 11:31 635 309 Santa Ana CA
19 Gonzalez,Evelyn 140 35:51.0 35:48.8 11:33 636 310 Santa Ana CA
20 Jaimes,Brenda 141 36:46.3 36:42.3 11:50 656 326 Santa Ana CA
21 Luna,Mayra 143 36:59.1 36:55.0 11:55 660 330 Santa Ana CA
22 Ruiz,Citlali 153 37:37.3 37:07.5 11:59 666 334 Santa Ana CA
23 Rhoda,Claire 2814 38:08.0 37:51.0 12:13 694 355 Irvine CA
24 Razo,Samantha 150 41:31.2 41:22.2 13:21 742 389 Santa Ana CA
25 Valdovinos,Maria 157 42:20.7 41:51.0 13:30 745 391 Santa Ana CA
26 Sanderson,Kaylee 1816 43:06.7 42:28.7 13:42 756 398 Irvine CA
27 Oppenlander,Allison 2831 43:25.4 43:06.7 13:54 769 407 Irvine CA
28 Arias,Brenda 131 43:54.0 43:36.3 14:04 775 412 Santa Ana CA
29 Peralta,Evelyn 149 47:37.5 47:07.6 15:12 817 441 Santa Ana CA
30 De La Quintana,Jamie 133 47:37.0 47:32.8 15:20 820 444 Santa Ana CA
31 Zacatzonteti,Yesenia 230 48:19.3 48:16.1 15:34 830 453 Santa Ana CA
32 Venegas,Brianna 229 48:19.9 48:16.4 15:34 831 454 Santa Ana CA
33 Fei Erman,Shayna 2643 58:39.6 58:39.6 18:55 916 510 Irvine CA
Go To Top
13-14 Female
  Overall Overall State/
Place Name Bib Gun Tag Pace Place by Sex City County
1 Stewart,Haleigh 1928 21:12.0 21:05.9 6:48 114 23 Aliso Viejo CA
2 Lidia,Nicole 2994 23:20.9 23:14.5 7:30 181 43 Irvine CA
3 Heising,Bethani 2984 24:11.6 23:59.6 7:44 210 56
4 Boucher,Cameryn 436 24:18.1 24:07.0 7:47 215 58 Irvine CA
5 Nagarvar,Alisha 1477 24:37.2 24:26.4 7:53 223 64 Mission Viejo CA
6 Brito,Isabelle 103 24:50.5 24:47.8 8:00 232 69 Santa Ana CA
7 De La Cruz,Kenia 2179 25:54.7 25:52.8 8:21 273 89 Santa Ana CA
8 Rivera,Stady 152 26:36.4 26:18.6 8:29 295 96 Santa Ana CA
9 Kashlan,Maya 2966 26:53.1 26:39.8 8:36 310 105 Irvine CA
10 Ulwelling,Elise 2995 27:08.8 26:51.8 8:40 313 107
11 Caldwell,Chanel 491 27:57.6 27:46.1 8:57 350 122 Irvine CA
12 Durant,Jessica 707 27:57.5 27:46.4 8:58 351 123 Irvine CA
13 Keefe,Caitlin 1154 28:26.9 27:56.4 9:01 357 124
14 Kiri,Michal 2618 28:23.8 28:06.7 9:04 369 130 Irvine CA
15 Hawley-browder,Abbey 971 29:22.0 28:45.4 9:17 399 147 Anaheim CA
16 Villareal,Regina 158 28:56.5 28:54.3 9:19 408 152 Santa Ana CA
17 Park,Elisabeth 2870 30:18.3 30:03.7 9:42 445 177 Irvine CA
18 Hernandez,Marissa 2468 31:34.4 31:14.7 10:05 500 217 Bellflower CA
19 Charco,Ana 2177 31:21.5 31:18.7 10:06 504 220 Santa Ana CA
20 Lee,Yujin 2520 32:26.6 32:12.1 10:23 540 245
21 Wong,Katie 223 32:32.6 32:27.5 10:28 552 255 Santa Ana CA
22 Dean,Becca 662 33:49.6 33:28.7 10:48 593 284 Anaheim CA
23 Hutchinson,Kiley 1067 34:21.9 33:43.2 10:53 601 291 Irvine CA
24 Salazar,Stephanie 122 36:44.8 36:41.1 11:50 653 323 Santa Ana CA
25 Schiller,Jennifer 1837 38:12.0 37:39.7 12:09 687 349 Irvine CA
26 Crespin,Iliana 5307 37:54.9 37:54.9 12:14 698 358 Los Angeles CA
27 Duarte,Reina 108 38:11.5 38:08.5 12:18 702 362 Santa Ana CA
28 Rapacz,Heather 1711 45:57.7 45:14.8 14:36 795 424 Anaheim CA
29 Alvarez,Zabdi 130 47:36.7 47:34.4 15:21 821 445 Santa Ana CA
30 Burke,Kristen 2499 57:01.7 54:30.5 17:35 883 487 Corona CA
Go To Top
15-18 Female
  Overall Overall State/
Place Name Bib Gun Tag Pace Place by Sex City County
1 Werley,Raelyn 266 18:46.2 18:43.5 6:02 51 4 Riverside CA
2 Babcock,Molly 351 18:47.6 18:46.3 6:03 54 5 Irvine CA
3 Rodriguez,Olivia 1756 19:58.2 19:52.4 6:25 79 10 Irvine CA
4 Bradford,Madeline 451 19:58.0 19:52.8 6:25 81 11 Irvine CA
5 Chan,Annie(channie) 532 19:58.1 19:52.8 6:25 82 12 Irvine CA
6 Gutcher,Alyssa 933 19:58.6 19:53.0 6:25 83 13 Irvine CA
7 Laveaga,Ana-paola 1237 20:24.0 20:18.8 6:33 90 16 Irvine CA
8 Jacklin,Breanna 271 21:50.3 21:37.5 6:59 132 31 Riverside CA
9 Cruz,Karen 209 23:29.9 23:27.4 7:34 187 44 Santa Ana CA
10 Rodriguez,Maria 219 23:30.0 23:28.0 7:34 188 45 Santa Ana CA
11 O'connor,Hannah 2451 23:57.8 23:45.5 7:40 199 50 Irvine CA
12 Rosales,Rachel 220 23:54.3 23:52.6 7:42 202 52 Santa Ana CA
13 Heising,Hannah 2617 24:09.5 23:57.7 7:44 208 55
14 Valenzuela,Briana 2027 24:12.0 24:04.2 7:46 211 57 Orange CA
15 Oefelein,Erin 1553 24:30.3 24:17.9 7:50 221 62 Tustin CA
16 Levine,Hanna 1261 24:29.8 24:19.1 7:51 222 63 Irvine CA
17 Toberty,Emily 2929 24:50.9 24:38.0 7:57 230 67 Irvine CA
18 Moreno,Bianca 2402 24:52.6 24:39.5 7:57 231 68 Irvine CA
19 Kim,Lauren 2921 25:20.3 25:07.5 8:06 242 76 Irvine CA
20 Mendoza,Jessica 218 25:57.3 25:55.8 8:22 275 90 Santa Ana CA
21 Huynh,Kimberly 214 26:32.7 26:27.6 8:32 304 102 Santa Ana CA
22 Meza,Aura 1411 27:51.1 27:20.3 8:49 332 114 Irvine C
23 Clayfield,Alexa 580 28:54.4 28:14.4 9:07 374 132 Irvine CA
24 Garcia,Alejandra 212 28:43.8 28:38.8 9:14 396 144 Santa Ana CA
25 King,Cassidy 1180 29:33.4 29:21.7 9:28 423 164 Foothill Ranch CA
26 Iglesias,Daisy 6060 29:56.7 29:23.4 9:29 424 165 Montebello CA
27 Eguchi,Alexa 2418 29:48.2 29:32.2 9:32 431 167 Irvine CA
28 Mosqueda,Gaby 2982 29:48.2 29:32.5 9:32 432 168 Irvine CA
29 Kirksey,Kayla 2417 29:48.4 29:33.0 9:32 433 169 Irvine CA
30 Suarez,Arlene 222 29:49.9 29:45.3 9:36 435 171 Santa Ana CA
31 Davis,Jessica 2616 30:17.0 30:01.2 9:41 442 175 Irvine CA
32 Kang,Catherine 2481 30:20.1 30:04.9 9:42 450 181 Irvine CA
33 Lim,Hilary 2528 30:45.4 30:30.5 9:51 474 198
34 Bone,Brianna 205 30:53.9 30:49.4 9:57 487 207 Santa Ana CA
35 Escalante,Alicia 2825 31:07.6 30:50.5 9:57 488 208 Irvine CA
36 Bunch,Adelle 2822 31:08.0 30:50.8 9:57 489 209 Irvine CA
37 Barboza,Daniela 371 32:45.3 32:39.0 10:32 564 263 Trabuco Canyon CA
38 Shih,Irene 1861 32:50.4 32:45.3 10:34 567 266 Irvine CA
39 Castro,Evelyn 208 33:00.8 32:55.6 10:37 574 269 Santa Ana CA
40 Camacho,Luisa 206 33:09.9 33:03.8 10:40 579 273 Santa Ana CA
41 Smith,Chandler 2952 33:47.5 33:07.4 10:41 585 277 Irvine CA
42 Holcomb,Tobin 1030 33:21.8 33:11.1 10:42 587 279 Irvine CA
43 Patterson,Melinda 2454 34:44.3 34:39.1 11:11 617 300 Irvine CA
44 Simpson,April 2405 36:36.2 36:18.4 11:43 642 315 Irvine CA
45 Zahl,Kylie 2156 36:59.5 36:34.6 11:48 646 318 Irvine CA
46 Kalidindi,Satya 1136 36:47.0 36:39.9 11:50 650 320 Irvine CA
47 Potasiak,Natalie 1662 36:47.4 36:40.3 11:50 651 321 Irvine CA
48 Lee,Melanie 1250 36:47.2 36:40.3 11:50 652 322 Irvine CA
49 Kent,Sarah 1166 36:46.7 36:41.2 11:50 654 324 Irvine CA
50 Mojica,Brianna 2637 37:11.3 36:53.1 11:54 659 329 Irvine CA
51 Leon,Jasmine 1254 37:08.1 37:02.1 11:57 663 332 Irvine CA
52 Rose,Caitlin 1773 37:14.2 37:08.5 11:59 668 335 Irvine CA
53 Leigh,Taylor 2311 38:12.2 37:39.4 12:09 685 347 Irvine CA
54 Dobbins,Brielle 2922 37:45.4 37:39.5 12:09 686 348 Irvine CA
55 Caparelli,Alyssa 502 37:49.3 37:43.3 12:10 690 352 Irvine CA
56 Dobbins,Halee 2235 38:47.5 37:47.6 12:11 692 353 Orange CA
57 Macneill,Shelanie 1319 38:27.6 37:49.5 12:12 693 354 Hemet CA
58 Adnani,Ariana 289 38:51.5 38:45.7 12:30 711 368 Irvine CA
59 Searl,Brianne 2834 43:31.2 43:11.5 13:56 771 409 Irvine CA
60 Mendoza,Suzette 1402 48:15.1 46:44.1 15:05 811 437 Irvine CA
61 Quiram,Carly 1696 48:57.6 47:27.1 15:18 818 442 Irvine CA
62 Rodriguez,Selena 1757 48:57.6 47:27.1 15:18 819 443 Tustin CA
63 Menchac,Celeste 2946 52:13.4 51:32.2 16:37 874 480 Corona CA
64 Evans,Helga 2843 56:03.5 55:38.6 17:57 896 497 Irvine CA
65 Steeg,Katherine 2841 56:04.2 55:39.3 17:57 897 498 Irvine CA
66 Dupray,Michelle 706 59:58.6 58:38.6 18:55 915 509 Irvine CA
67 Rodriguez,Maria 2440 1:07:31.2 1:07:31.2 21:47 942 530
68 Burke,Laura 2498 1:07:43.9 1:07:43.9 21:51 943 531 Corona CA
Go To Top
19-24 Female
  Overall Overall State/
Place Name Bib Gun Tag Pace Place by Sex City County
1 Slykhous,Nichole 2791 17:50.6 17:48.9 5:45 35 1 Newport Beach CA
2 Oropeza,Casey 1575 19:21.0 19:19.8 6:14 61 7 Costa Mesa CA
3 Fischetti,Chanel 780 21:32.4 21:01.5 6:47 111 21 Laguna Niguel CA
4 Hughes,Kerry 2682 21:40.7 21:28.0 6:56 127 29
5 Hay,Maura 2783 21:52.2 21:48.6 7:02 138 33 Fountain Valley CA
6 Frentzen,Laura 815 22:13.4 22:08.7 7:09 143 35 Irvine CA
7 Bittick,Sarah 416 23:48.9 23:41.0 7:38 195 48 Los Angeles CA
8 Marshall,Lauren 1341 24:41.6 23:47.6 7:41 200 51 Huntington Beach CA
9 Griffin,Sierra 920 24:29.9 24:17.1 7:50 220 61 Santa Barbara CA
10 Flemming,Christy 786 25:46.7 25:18.2 8:10 252 80 Brea CA
11 Nuno,Erika 1540 27:28.8 25:47.9 8:19 268 87 Irvine CA
12 White,Brooklin 2089 26:25.5 26:02.4 8:24 283 92 Temecula CA
13 Garcia,Claudia 842 27:36.6 27:24.9 8:51 337 116 Santa Ana CA
14 Hernandez,Jessica 994 27:53.7 27:40.4 8:56 345 120 Santa Ana CA
15 Lund,Catriona 2917 29:23.9 28:45.3 9:17 398 146 Laguna Hills CA
16 Ferry,Megan 775 29:16.2 28:54.4 9:20 409 153 Lake Forest CA
17 Bautista,Jemianne 389 30:21.5 29:26.8 9:30 428 166 Irvine CA
18 Heraper,Lizzie 987 30:23.1 30:04.2 9:42 446 178 Tustin CA
19 Heraper,Ally 986 30:23.4 30:04.7 9:42 449 180 Thousand Oaks CA
20 Nguyen,Linh 1509 30:07.9 30:07.9 9:43 453 183 Irvine CA
21 Laus,Katharina 1236 31:18.4 30:20.5 9:47 465 191 Saratoga CA
22 Beltran,Stephanie Rose 402 31:03.0 30:42.5 9:54 485 205
23 Tangsombatvisit,Stephanie 1961 31:56.4 30:59.7 10:00 495 214 Irvine CA
24 Silva,Mayra 1868 32:05.8 31:35.2 10:11 514 225 Santa Ana CA
25 Gordon,Lindsay 908 33:02.4 32:15.1 10:24 541 246 Mission Viejo CA
26 Dean,Katrina 663 34:23.4 33:26.5 10:47 592 283 Costa Mesa CA
27 Nguyen,Kambria 1506 34:48.2 33:53.4 10:56 604 292 Fountain Valley CA
28 Kazemi,Tiana 2662 35:40.2 35:14.9 11:22 627 306 Irvine CA
29 Li,Aimee 1263 37:23.9 36:43.8 11:51 657 327 Rosemead CA
30 Saw,Beatrice 1826 37:49.2 37:16.6 12:01 675 340 Lakewood CA
31 Boies,Blair 2516 37:50.5 37:21.5 12:03 678 343 Huntington Beach CA
32 Harris,Caroline 962 38:11.6 38:02.4 12:16 700 360 Laguna Niguel CA
33 Lai,Yu 1214 40:22.0 39:57.8 12:54 725 377 Tustin CA
34 Valencia,Julie Ann 2768 41:00.0 40:21.0 13:01 730 379 Irvine CA
35 Rebal,Casey 2755 46:42.9 45:55.7 14:49 803 430 Mission Viejo CA
36 Carr,Jessica 2896 48:33.1 48:33.1 15:40 832 455 West Covina CA
37 Cech,Bethany 529 51:19.6 50:15.5 16:13 854 466 Irvine CA
38 Sothy,Jennifer 1902 56:11.6 54:51.4 17:42 890 493 Irvine CA
39 Carmichael,Brittany 511 1:00:06.2 59:39.7 19:15 921 513 Laguna Niguel CA
Go To Top
25-29 Female
  Overall Overall State/
Place Name Bib Gun Tag Pace Place by Sex City County
1 Hobson,Holly 1022 18:27.7 18:26.4 5:57 47 3 Irvine CA
2 Vance,Stephanie 2702 21:06.2 20:58.7 6:46 108 20
3 Ballon,Vicki 362 21:25.8 21:22.6 6:54 123 26 Irvine CA
4 Guerriere,Desiree 928 23:36.4 23:28.4 7:34 189 46 Laguna Beach CA
5 Calkins,Cassandra 2407 24:53.5 24:30.8 7:54 226 66 Anaheim CA
6 Lewis,Collette 1262 25:58.3 25:45.3 8:19 266 86 Irvine CA
7 Isom,Tabitha 2523 26:09.2 26:00.5 8:23 280 91 La Habra CA
8 Simspson,Casey 1870 26:14.8 26:04.2 8:25 285 93 Cerritos CA
9 Ragsdale,Holly 1701 27:27.9 27:07.3 8:45 323 110 Yucaipa CA
10 Veselko,Heather 2045 27:26.8 27:17.0 8:48 326 112 Irvine CA
11 Conroy,Marisa 593 28:18.8 27:57.6 9:01 358 125 Irvine CA
12 Tomlinson,Nicole 1993 28:38.4 28:20.0 9:08 380 136 Anahiem CA
13 Marcella,Laura 1337 29:02.1 28:30.6 9:12 389 140 Half Moon Bay CA
14 Pallo,Joanna 1589 29:25.7 28:46.9 9:17 404 150 Lake Forest CA
15 Hecht,Allison 977 29:13.3 29:04.1 9:23 414 158 Irvine CA
16 Turcios,Jennifer 2316 30:19.1 30:04.6 9:42 448 179 Los Angeles CA
17 Hsu,Ruth 1051 31:19.1 30:22.9 9:48 466 192 Irvine CA
18 Lett,Marie 1260 30:44.2 30:28.5 9:50 471 196 Mission Viejo CA
19 Niven,Rachel 1525 30:44.5 30:28.7 9:50 472 197 Laguna Hillas CA
20 Chan,Macey 533 30:58.2 30:31.2 9:51 475 199 Santa Ana CA
21 Barnes,Rachel 377 31:34.4 30:35.6 9:52 479 201 Costa Mesa CA
22 Chu,Angela 570 31:57.3 30:59.4 10:00 494 213 Irvine CA
23 Taylor,Danielle 1971 31:56.1 31:44.8 10:14 518 228 Newport Beach CA
24 Lowber,Lacey 1294 31:56.0 31:44.9 10:14 519 229 Santa Monica CA
25 Rieck,Mara 2688 32:20.9 31:50.7 10:16 527 236 Irvine CA
26 Dulle,Lindsey 700 32:41.2 31:55.2 10:18 530 238 Orange CA
27 Cleary,Joy 583 32:48.5 32:01.7 10:20 535 242 Aliso Viejo CA
28 Simpson,Samantha 1869 32:51.8 32:35.6 10:31 563 262 Cerritos CA
29 Solideo,Maybelline 1890 33:39.7 32:49.9 10:35 571 268 Aliso Viejo CA
30 Barcimo,Joyce 373 33:21.7 33:02.7 10:40 577 271 Seal Beach CA
31 Laturno,Megan 1233 34:46.2 33:08.6 10:41 586 278 Newport Beach CA
32 Gallardo,Cristina 835 35:02.4 34:32.0 11:08 612 297 Santa Ana CA
33 Quinn,Rachel 1693 37:28.3 34:42.5 11:12 618 301 Irvine CA
34 Estrada,Stephanie 755 36:21.1 36:16.2 11:42 641 314 Pico Rivera CA
35 Balizadeh,Shahla 360 37:48.6 37:15.4 12:01 674 339 Huntington Beach CA
36 Daneshmand,Tina 638 38:47.8 38:29.6 12:25 706 365 Woodland Hills CA
37 Salas,Veronica 6 58:40.2 40:32.2 13:05 732 381
38 Liufau,Susie 1278 42:10.1 41:54.7 13:31 749 395 Anaheim CA
39 Chen,Emily 548 42:20.9 41:56.3 13:32 751 396 Tustin CA
40 Robles,Paola 1750 43:49.9 43:49.9 14:08 778 413 Rancho Santa Margari CA
41 Kornmann,Jenna 1197 45:02.6 44:32.9 14:22 786 419 Huntington Beach CA
42 Nguyen,Katrina 1507 45:35.5 44:54.4 14:29 790 422 Lake Forest CA
43 Ramirez,Michelle 1705 48:12.4 45:03.5 14:32 791 423 Monrovia CA
44 George,Meghan 2332 46:15.5 45:34.9 14:42 801 429 Huntington Beach CA
45 Forbes,Samantha 797 47:10.5 46:17.0 14:56 807 433 Los Angeles CA
46 Chung,Katie 574 48:13.6 47:50.9 15:26 825 449 Tustin CA
47 Chang,Ruby 539 48:24.3 47:58.8 15:29 826 450 Tustin CA
48 Krishnan,Divya 1203 51:28.9 49:23.5 15:56 846 462 Irvine CA
49 Fernandez,Michelle 2427 53:14.9 52:28.1 16:56 878 483 Anaheim CA
50 Kang,Ivy 1137 58:41.8 58:14.2 18:47 910 506 Tustin CA
51 Short,Kelly 1865 1:01:49.3 1:00:53.6 19:39 928 518 Glendora CA
52 Lo,Chen 1282 1:48:31.2 1:37:21.6 31:24 949 532 Monterey Park CA
Go To Top
30-34 Female
  Overall Overall State/
Place Name Bib Gun Tag Pace Place by Sex City County
1 Biscay,Hillary 414 19:11.3 19:10.1 6:11 57 6 Tucson AZ
2 Dippong,Stacey 682 20:12.6 20:09.5 6:30 87 14 Irvine CA
3 Bounds,Brandy 441 21:18.7 21:11.0 6:50 118 25 Aliso Viejo CA
4 Kozuki,Jessica 2464 21:26.5 21:23.4 6:54 125 27 Costa Mesa CA
5 Bray,Karin 454 23:28.7 22:49.7 7:22 167 39 Irvine CA
6 Appell,Christine 325 22:59.3 22:55.5 7:24 168 40 Huntington Beach CA
7 Lauria,Lindsey 2699 23:57.3 23:55.0 7:43 205 54 Newport Beach CA
8 Patterson,Molly 1609 25:11.7 24:58.4 8:03 238 74 Mission Viejo CA
9 Lukach,Meghann 1302 25:21.4 25:07.7 8:06 243 77 Orange CA
10 Flores,Christy 788 25:55.3 25:41.7 8:17 263 83 Costa Mesa CA
11 Gold,Meredith 883 25:52.9 25:45.1 8:18 265 85 Tustin CA
12 Jordan,Sara 216 26:38.8 26:33.0 8:34 307 104 Santa Ana CA
13 Newman,Shawna 1502 28:26.2 27:59.5 9:02 364 127 Laguna Niguel CA
14 Rogers,Jami 1764 28:34.6 28:03.2 9:03 368 129 Irvine CA
15 Perez,Natalie 1631 29:16.4 28:34.8 9:13 392 143 La Habra CA
16 Sokol,Amy 1889 29:25.0 28:45.5 9:17 400 148 Laguna Beach CA
17 Morton,Abby 1461 30:33.9 30:01.5 9:41 443 176 Reno NV
18 Nardelli,Sheila 1490 31:08.5 30:42.2 9:54 483 204 Buena Park CA
19 Smemoe,Kristi 2226 32:20.7 31:50.6 10:16 526 235 Irvine CA
20 Read,Megan 1716 32:42.1 31:56.4 10:18 531 239 Newport Beach CA
21 Rocca,Maria 1751 33:14.9 32:23.9 10:27 547 252 Irvine CA
22 Thanyapant,Star 1976 33:39.1 32:49.0 10:35 569 267 Irvine CA
23 Ogata,Yuri 1557 33:30.2 33:03.2 10:40 578 272 Irvine CA
24 Atwell,Terah 346 33:25.1 33:06.1 10:41 582 275 Placentia CA
25 Maldonado,Channet 1328 34:50.9 33:58.1 10:57 605 293 Orange CA
26 Simpson,Leezza 2474 35:23.9 34:03.7 10:59 606 294 Agoura Hills CA
27 Rose,Carolina 1774 35:01.9 34:31.3 11:08 611 296 Anaheim Hills CA
28 Kerr,Alesa 1170 35:45.4 34:53.6 11:15 621 304 Orange CA
29 Dean,Viviana 664 35:48.6 35:27.7 11:26 632 308 Anaheim CA
30 Hsu,Sherry 1052 37:04.0 36:09.6 11:40 639 312 Corona CA
31 Nolasco,Lori 1529 37:01.7 36:48.6 11:52 658 328 Corona CA
32 Perez,Sasa 1633 36:59.1 36:59.1 11:56 661 331 Whittier CA
33 Davis,Katherine 653 38:02.7 37:17.3 12:02 676 341 Sherman Oaks CA
34 Ellena,Jennifer 729 39:21.3 38:39.2 12:28 709 366 Irvine CA
35 Ikeda,Stephanie 1076 41:33.1 40:43.7 13:08 733 382 Irvine CA
36 Huynh,Hong An 1071 41:33.8 40:44.4 13:09 734 383 Irvine CA
37 Hsu,Jenny 1050 41:51.8 41:51.8 13:30 746 392 Costa Mesa CA
38 Prasad,Shimsha Divyashree 1676 42:17.0 41:53.5 13:31 748 394 Irvine CA
39 Guzman,Kristen 939 48:06.9 47:05.1 15:11 815 440 San Jacinto CA
40 Hu,Karen 1053 49:11.1 48:45.5 15:44 839 458 Tustin CA
41 Maddux,Garine 2564 49:46.6 49:20.6 15:55 845 461 Saint George UT
42 Oloresisimo-villaver,Erin 1568 52:20.8 50:32.6 16:18 862 471 Anaheim CA
43 Hawkins,Erin 2426 53:14.2 52:27.4 16:55 877 482 Laguna Niguel CA
44 Cortez Perez,Myrna 2282 1:11:10.8 56:36.6 18:16 900 500 Irvine CA
45 Galdamez,Adriana 833 58:46.5 57:31.2 18:33 908 504 San Diego CA
46 Engen,Sherri 738 1:00:01.3 58:51.0 18:59 919 511 Irvine CA
47 Steen,Jessica 1914 1:01:50.0 1:00:54.2 19:39 929 519 Costa Mesa CA
48 Hopkins,Mary 1035 1:06:01.7 1:04:48.2 20:54 933 523 Irvine CA
49 Garcia,Celeste 841 1:07:23.1 1:07:23.1 21:44 937 526 Whittier CA
50 Ariza,Michelle 328 1:07:23.7 1:07:23.7 21:44 940 529 Monterey Park CA
Go To Top
35-39 Female
  Overall Overall State/
Place Name Bib Gun Tag Pace Place by Sex City County
1 Swenginson,Jamie 1944 19:44.1 19:41.0 6:21 69 8 Huntington Beach CA
2 Galambos,Pamela 832 20:16.0 20:14.3 6:32 89 15
3 Shank,Meleah 2247 21:11.1 21:08.9 6:49 117 24 Irvine CA
4 Eng,Camilah 2248 23:13.3 23:01.3 7:26 171 42
5 Farnham,Allison 765 24:30.1 24:10.8 7:48 217 60 Corona CA
6 Pezzulo,Tiffany 2531 24:42.7 24:30.5 7:54 225 65 Salt Lake City UT
7 Marger,Jennifer 2279 25:27.2 24:55.1 8:02 237 73 Tustin CA
8 Glover,Rachel 2469 25:24.1 25:07.3 8:06 241 75 Huntington Beach CA
9 Thirion,Deb 2679 25:48.4 25:36.0 8:16 259 81 San Diego CA
10 Barth,Amanda 383 26:00.3 25:44.5 8:18 264 84 Mission Viejo CA
11 Fattoruso,Christina 768 26:29.2 26:21.6 8:30 297 97 Orange CA
12 Cord,Kimberly 602 28:00.4 27:43.1 8:56 348 121 Laguna Beach CA
13 Herro,Heather 1003 28:47.5 28:15.6 9:07 375 133 Irvine CA
14 Galasanz,Melissa 2437 28:47.7 28:27.4 9:11 384 137 Anaheim CA
15 Ogata,Chihiro 1556 28:54.9 28:27.9 9:11 386 139 Irvine CA
16 Mcnatt,Robin 2225 28:36.4 28:32.9 9:13 391 142 Irvine CA
17 Kfir,Shira 1173 29:02.3 28:39.7 9:15 397 145 Irvine CA
18 Gutcher,Regina 934 29:48.3 29:11.3 9:25 416 160 Irvine CA
19 Lutkus,Leanne 2263 30:11.3 29:46.1 9:36 437 172 Irvine CA
20 Chance,Jessica 2992 30:38.4 30:05.8 9:43 451 182 Irvine CA
21 Julie,Rees 2993 30:41.3 30:08.2 9:43 455 185 Irvine CA
22 Fortier,Perry 802 30:32.7 30:09.8 9:44 456 186 Irvine CA
23 Lo,Ann 1281 30:33.2 30:10.0 9:44 457 187 Irvine CA
24 Nachbaur,Katy 2333 31:28.0 30:19.9 9:47 463 190 Huntington Beach CA
25 Evans,Jamie 757 30:56.7 30:33.8 9:52 477 200 Irvine CA
26 Hochswinder,Jaimee 1024 31:37.2 30:38.6 9:53 480 202 Los Angeles CA
27 Wie,Sharon 2098 31:14.8 30:42.0 9:54 481 203 Huntington Beach CA
28 Hess,Kristin 2197 31:18.0 30:53.5 9:58 490 210 Irvine CA
29 Strean,Julie 1935 31:39.9 31:02.7 10:01 496 215 Irvine CA
30 Farrokhi,Parisa 767 32:04.0 31:45.6 10:15 520 230 Irvine CA
31 Wong,Terry 2122 32:04.1 31:45.7 10:15 521 231 Irvine CA
32 Gonzales,Conni 2411 32:02.0 31:58.9 10:19 533 240 Irvine CA
33 Tan,Bettina 1959 34:06.2 32:11.2 10:23 539 244 Lake Forest CA
34 Menor-gamatero,Ellen 1404 34:13.2 32:18.0 10:25 543 248 Irvine CA
35 Siddiqui,Sabiha 2762 32:51.7 32:18.0 10:25 544 249 Tustin CA
36 Rafizad,Hedieh 1699 33:04.0 32:31.0 10:29 555 258 Laguna Niguel CA
37 Tanopo,Christine 1962 32:38.5 32:31.4 10:29 557 259 Laguna Beach CA
38 Indes,Stacey 2262 33:24.0 32:57.7 10:38 575 270 Irvine CA
39 Tuthill,Laura 2021 33:21.5 33:07.3 10:41 584 276 Orange CA
40 Kaiser,Jennifer 1133 34:20.3 33:41.4 10:52 599 289 Orange CA
41 Hernandez,Cynthia 991 35:52.9 34:48.1 11:14 619 302 La Mirada CA
42 Yasui,Kimberly 2139 36:53.9 36:20.8 11:44 643 316 Irvine CA
43 Lopez,Rochelld 2948 44:35.7 40:16.1 12:59 728 378 Long Beach CA
44 Zomorodian,Toska 2171 41:08.3 41:08.3 13:16 738 386 Irvine CA
45 Salter,Elissa 1807 41:43.6 41:14.2 13:18 741 388 Huntington Beach CA
46 Lopez,Angelica 1284 42:26.3 42:07.6 13:35 752 397 Buena Park CA
47 Haar,Debbie 941 43:17.3 42:38.9 13:45 758 400 Hemet CA
48 Bedley,Anna 397 44:58.2 44:07.5 14:14 782 415 Irvine CA
49 Bedley,Anna 398 44:58.8 44:07.8 14:14 783 416 Irvine CA
50 Maisano,Rita 1327 45:02.7 44:20.6 14:18 785 418 Lake Forest CA
51 Hoffman,Kim 1027 45:28.2 44:44.5 14:26 787 420 Newport Beach CA
52 Erenberg,Stacy 6930 50:31.2 46:06.2 14:52 805 432 Los Angeles CA
53 Jung,Suzy 1128 46:58.8 46:20.3 14:57 808 434 Irvine CA
54 Chou,Jamie 568 46:53.7 46:29.2 15:00 810 436 Irvine CA
55 Esquibel,Gloribella 753 48:17.6 48:15.1 15:34 829 452 Irvine CA
56 Horey,Wendy 1037 49:50.3 48:37.6 15:41 835 456 Irvine CA
57 Beckett,Sherry 2642 53:19.0 52:59.0 17:05 881 486 Irvine CA
Go To Top
40-44 Female
  Overall Overall State/
Place Name Bib Gun Tag Pace Place by Sex City County
1 Katz,Amy 1149 22:15.6 22:11.9 7:10 146 36 Irvine CA
2 Arney,Julz 2686 22:17.6 22:12.8 7:10 147 37 Costa Mesa CA
3 Vagas,Julie 2976 23:48.9 23:34.9 7:36 192 47 Apo AE
4 Nguyenduc,Monica 2949 25:04.7 24:52.7 8:02 235 72 Irvine CA
5 Hahn,Kelly 944 25:20.1 25:11.0 8:07 247 78 Corona CA
6 Adams,Helene 287 27:08.6 26:16.9 8:29 293 95 Orange CA
7 Oconnell,Megan 1551 27:32.4 26:51.8 8:40 314 108 Aliso Viejo CA
8 Schwartz,Krisi 2761 27:26.8 27:17.0 8:48 327 113 Lake Forest CA
9 Boucher,Shari 439 28:29.2 28:13.4 9:06 373 131 Irvine CA
10 Packard,Karla 1585 28:39.2 28:27.5 9:11 385 138 Corona CA
11 Nagarvar,Shalia 1478 28:58.4 28:48.0 9:17 405 151 Mission Viejo CA
12 Shapiro,Toni 1855 29:19.4 29:04.0 9:23 413 157 Aliso Viejo CA
13 Jung,Sandy 1127 30:46.6 30:14.9 9:45 459 188 Irvine CA
14 Geissler,Yamel 858 31:08.1 30:27.3 9:49 468 193 Fontana CA
15 Darby,Natsuko 646 30:59.3 30:47.4 9:56 486 206 Irvine CA
16 Bohlman,Michelle 425 32:25.1 31:46.6 10:15 522 232 Irvine CA
17 Eyre,Angela 2692 32:20.9 31:50.4 10:16 525 234 Irvine CA
18 Hamilton,Nancy 2233 33:01.8 32:02.3 10:20 537 243 Orange CA
19 Klemek,Rachel 1185 33:16.2 32:15.4 10:24 542 247 Irvine CA
20 Duncan,Mylinh 701 33:08.2 32:30.9 10:29 554 257 Irvine CA
21 Robertson,Leslie 1747 32:54.0 32:34.7 10:31 560 261 Corona CA
22 Powers,Audra 1671 33:41.2 32:44.4 10:34 566 265 Rancho Santa Margari CA
23 Lund,Kate 2202 33:55.6 33:15.7 10:44 588 280 Trabuco Canyon CA
24 Cube,Maribel 631 35:41.9 34:35.2 11:09 614 299 Buena Park CA
25 Esguerra,Lolline 750 35:25.1 34:50.5 11:14 620 303 Irvine CA
26 Moinuddin,Deanne 1437 37:00.8 36:28.6 11:46 645 317 Irvine CA
27 Tran,Rochelle 2189 37:15.6 36:41.3 11:50 655 325 Tustin CA
28 Montanchez,Guille 1441 37:44.8 37:09.1 11:59 670 336 Irvine CA
29 Stokes,Julie 1932 39:11.1 38:22.5 12:23 705 364 Mission Viejo CA
30 Ohnemus,Sandy 1561 39:45.3 38:42.2 12:29 710 367 Irvine CA
31 Dualba,Denisa 2965 39:50.0 39:00.1 12:35 714 371 Irvine CA
32 Eadie,Donna 712 40:02.0 39:47.9 12:50 719 373 Los Angeles CA
33 Solis,Maria 1891 42:17.6 41:04.0 13:15 737 385 Costa Mesa CA
34 So,Juli 1888 41:36.4 41:13.1 13:18 740 387 Irvine CA
35 Powers,Marie 1672 43:25.1 42:45.2 13:47 760 402 Tustin CA
36 Taylor,Jacquelyn 1972 43:35.6 42:55.7 13:51 763 403 Irvine CA
37 Large,Patricia 2441 44:05.4 43:04.4 13:54 767 405
38 James,Kristen 1095 51:24.1 45:23.9 14:39 796 425 Corona CA
39 Cook,Leah 595 45:43.5 45:24.2 14:39 797 426 Fontana CA
40 Ching,Brenda 2485 46:17.4 45:56.0 14:49 804 431 Irvine CA
41 Mohr,Judy 1436 46:59.3 46:21.0 14:57 809 435 Irvine CA
42 Guzman,Rosalba 2720 48:23.8 47:38.4 15:22 823 447 Cudahy CA
43 Lee,Kelly 1247 48:25.3 47:59.5 15:29 827 451 Tustin CA
44 Andrews,Shelly 321 49:25.5 48:46.0 15:44 840 459 Lakewood CA
45 Abregov,Sheila 283 50:58.1 50:20.9 16:14 858 469 Mission Viejo CA
46 Menchaca,Sonya 1399 52:13.1 51:31.9 16:37 873 479 Corona CA
47 Rivera,Lucy 1742 53:34.1 52:36.1 16:58 879 484 Cerritos CA
48 Nishikawa,Linda 2302 53:18.5 52:58.7 17:05 880 485 Irvine CA
49 Coronel,Sheila 608 1:02:06.5 1:02:06.5 20:02 932 522 La Mirada CA
Go To Top
45-49 Female
  Overall Overall State/
Place Name Bib Gun Tag Pace Place by Sex City County
1 Daputy,Diane 2493 19:51.5 19:50.0 6:24 75 9
2 Zinlmann,Sue 2166 20:23.0 20:20.9 6:34 92 17
3 Broady,Marilyn 2526 20:32.8 20:28.8 6:36 95 18 Brea CA
4 Lang,Josie 2621 21:08.2 21:04.3 6:48 113 22 Yorba Linda CA
5 Morrison,Jannay 1460 21:31.2 21:26.9 6:55 126 28 Irvine CA
6 Matsuda,Noreene 1356 21:32.6 21:30.5 6:56 128 30 Mission Viejo CA
7 Hart,Julie 2537 22:29.0 22:26.3 7:14 159 38 Irvine CA
8 Rendon-thomas,Gloria 1723 23:01.3 22:57.5 7:24 170 41 Laguna Hills CA
9 Donnellan,Molly 690 24:53.3 24:48.1 8:00 233 70 Irvine CA
10 Gierut,Debra 869 25:47.0 25:40.3 8:17 262 82 Laguna Niguel CA
11 Stanley,Allison 1910 26:46.4 26:26.5 8:32 301 100 Huntington Beach CA
12 Sternberg,Susan 2971 26:46.8 26:26.7 8:32 302 101 Huntington Beach CA
13 Toth,Patricia 1996 27:38.1 26:31.5 8:33 306 103 Buena Park CA
14 Tuohy,Lisette 2018 28:50.8 27:35.3 8:54 342 118 Woodland Hills CA
15 Frousiakis,Georgia 818 28:34.3 27:39.7 8:55 343 119 Anaheim Hills CA
16 Babe,Malissa 7 28:24.5 27:58.9 9:02 361 126 Irvine CA
17 Douglas,Natalie 2848 28:36.9 28:03.1 9:03 367 128 Tustin CA
18 How,Kimberly 1047 28:29.2 28:18.9 9:08 378 134 Irvine CA
19 Stasand,Diana 1913 28:50.4 28:45.8 9:17 401 149 Irvine CA
20 Lesser,Ann 1257 29:55.1 29:34.9 9:33 434 170 Irvine CA
21 Smith,Jan 2953 31:51.8 31:18.9 10:06 505 221 Irvine CA
22 Zahl,Janet 2155 31:44.4 31:19.2 10:06 506 222 Irvine CA
23 Richter,Cindy 2980 33:04.4 32:20.4 10:26 546 251 San Clemente CA
24 Depaul,Amy 2260 35:59.9 34:35.0 11:09 613 298
25 Delo,Yvonne 2612 35:45.0 35:09.2 11:20 624 305 Irvine CA
26 Brga,Mta 2678 37:13.3 36:36.2 11:48 648 319 Irvine CA
27 Harris,Nancy 2328 37:18.6 37:09.2 11:59 671 337 Laguna Niguel CA
28 Boies,April 2515 37:50.6 37:20.8 12:03 677 342 Huntington Beach CA
29 Hoshino,Carrie 1042 38:06.0 37:24.3 12:04 682 345 Irvine CA
30 Kaegi,Patte 1132 40:51.7 39:53.8 12:52 721 375 Aliso Viejo CA
31 Ehlert,Jenny 2470 41:49.4 40:55.0 13:12 735 384 Villa Park CA
32 Valdovinos,Maria 156 43:28.8 42:57.2 13:51 764 404 Santa Ana CA
33 Oppenlander,Kris 2832 43:30.5 43:10.7 13:56 770 408 Irvine CA
34 Searl,Heather 2833 43:31.0 43:11.5 13:56 772 410 Irvine CA
35 Thompson,Eula 1987 44:57.3 44:19.5 14:18 784 417 San Juan Capistrano CA
36 Kopecky,Cristina 2811 49:11.9 48:44.6 15:43 837 457 Irvine CA
37 Toofanian,Fariba 2819 52:09.5 51:16.0 16:32 869 475 Irvine CA
38 Flanagan,Aimee 2629 52:46.7 52:13.2 16:51 876 481 Irvine CA
39 Yap,Carrotte 2138 55:20.9 54:30.9 17:35 884 488 Irvine CA
40 Padilla,Maryhelen 2947 56:48.8 55:42.2 17:58 899 499 Downey CA
41 Maybrier,Sharon 1364 57:25.4 56:42.1 18:17 902 501 Newport Beach CA
42 Crews,Elizabeth 623 58:00.6 56:49.7 18:20 903 502 Irvine CA
43 Wagner,Sherri 2061 59:39.6 59:39.6 19:15 920 512 Tustin CA
44 Jewell,Mary 1106 1:03:42.4 1:00:10.1 19:25 923 515 Anaheim Hills CA
Go To Top
50-54 Female
  Overall Overall State/
Place Name Bib Gun Tag Pace Place by Sex City County
1 Liu,Yayoi 1277 20:41.6 20:39.1 6:40 101 19 Irvine CA
2 Ferrando,Shawn 2604 22:00.6 21:58.0 7:05 140 34 Rancho Santa Margari CA
3 Innis,Grace 1081 24:00.7 23:45.0 7:40 198 49 Rancho Santa Margari CA
4 Bailey,Mary 358 24:06.6 23:53.1 7:42 203 53 Anaheim CA
5 Winter,Karen 2286 24:57.2 24:50.6 8:01 234 71 Laguna Niguel CA
6 Ingegneri,Tina 1079 27:44.9 27:28.2 8:52 339 117 Mission Viejo CA
7 Hernandez,Joan 995 31:34.6 31:14.6 10:05 499 216 Bellflower CA
8 Hill,Valerie 1012 31:49.2 31:16.6 10:05 501 218 Mission Viejo CA
9 Bonner,Joy 433 31:33.8 31:18.0 10:06 503 219 Irvine CA
10 Stanley,Janice 1912 32:23.9 31:37.5 10:12 515 226 Rsm CA
11 Essensa,Jodee 2607 32:16.2 32:00.8 10:20 534 241 Orange CA
12 Lund,Ruth 1304 33:04.4 32:26.3 10:28 550 254 Laguna Hills CA
13 Parker,Lori 1600 33:28.5 32:28.1 10:28 553 256 Orange CA
14 Miller,Pam 1419 32:59.4 32:32.8 10:30 558 260 Santa Ana CA
15 Wickersham,Debbie 2096 33:16.7 32:40.6 10:32 565 264 Orange CA
16 Alicea,Lourdes 300 33:35.0 33:18.4 10:45 591 282 Westminster CA
17 Hutchinson,Teresa 1069 34:11.8 33:33.6 10:50 597 287 Irvine CA
18 Takushi,Carrie 1956 34:04.1 33:37.3 10:51 598 288 Irvine CA
19 Scott,Bobbi 1842 36:28.5 36:06.1 11:39 638 311 Lake Forest CA
20 Hawley,Judy 970 37:46.1 37:10.4 12:00 673 338 Anaheim CA
21 Rowe,Eileen 1781 42:18.0 37:23.1 12:04 679 344 Fullertion CA
22 Mouser,Nancy 1465 38:10.5 37:42.0 12:10 689 351 Irvine CA
23 Sally,Sefami 2187 38:38.8 38:18.7 12:22 704 363
24 White,Mary 2091 39:18.2 38:58.0 12:34 713 370 Norwalk CA
25 Hill,Sandi 1010 40:01.7 39:48.0 12:50 720 374 Valencia CA
26 Katinas,Ellen 1144 41:08.6 39:57.8 12:53 724 376 San Pedro CA
27 Noblitt,Patty 1528 41:29.3 40:27.8 13:03 731 380 Irvine CA
28 Sanderson,Diana 1815 43:06.8 42:29.1 13:42 757 399 Irvine CA
29 Wukawitz,Therese 2131 44:05.8 43:04.8 13:54 768 406 Costa Mesa CA
30 Mokhtari,Azita 2815 44:03.6 43:28.7 14:02 773 411 Irvine CA
31 Perez,Rafaela 1632 48:23.1 47:37.9 15:22 822 446 La Habra CA
32 Bullock,Lisa 2632 49:47.1 49:00.1 15:48 842 460 Laguna Niguel CA
33 Taylor,Stephanie 2897 50:15.4 50:15.4 16:13 853 465 Reseda CA
34 Langdorf,Barbara 1226 51:34.1 50:29.2 16:17 859 470 Irvne CA
35 Roe,Cynthia 1762 51:13.6 50:45.4 16:22 864 472 San Juan Capistrano CA
36 Caulfield,Karen 2695 51:11.6 51:03.1 16:28 866 473 Foothill Ranch CA
37 Cavarretta,Martha 527 55:54.4 54:47.0 17:40 887 490 Irvine CA
38 Johnson,Torri 2635 55:35.5 54:49.6 17:41 888 491 Irvine CA
39 Macshane,Nedra 1320 55:58.0 54:51.4 17:42 891 494 Anaheim CA
40 Owings,Roxanna 2300 58:04.8 55:30.1 17:54 894 496 Tustin CA
41 Dupray,Kathy 705 59:50.4 58:30.1 18:52 913 508 Irvine CA
42 Finnila,Lynette 779 1:00:06.9 59:40.4 19:15 922 514 San Clemente CA
43 Ertel,Cheri 748 1:02:49.8 1:01:58.6 20:00 931 521 Tustin CA
Go To Top
55-59 Female
  Overall Overall State/
Place Name Bib Gun Tag Pace Place by Sex City County
1 Wusthof,Pamela 2133 26:17.0 26:13.3 8:28 291 94 Irvine CA
2 Braden,Kathy 448 27:14.7 27:10.5 8:46 324 111 Irvine CA
3 Clayfield,Nancy 581 28:57.6 28:19.2 9:08 379 135 Irvine CA
4 Mckenna,Karen 1376 29:16.7 28:58.8 9:21 410 154 Costa Mesa CA
5 Morris,Faith 2999 30:44.2 30:27.6 9:50 469 194 Laguna Niguel CA
6 Hansen,Joan 957 30:56.1 30:28.5 9:50 470 195 Tehachapi CA
7 Simspson,Susan 1871 31:10.9 30:54.5 9:58 491 211 Cerritos CA
8 Nakagawa,Faith 2988 31:41.2 31:35.1 10:11 513 224 Newbury Park CA
9 Bogue,L 424 32:22.4 31:50.3 10:16 524 233 Mission Viejo CA
10 Musgrave,Maryellen 2743 32:38.3 32:18.1 10:25 545 250 Irvine CA
11 Wilson,Veronica 2778 36:51.6 36:14.3 11:41 640 313 Cedaredge CO
12 Browse,Claire 466 37:19.9 37:05.9 11:58 664 333 London Gbr
13 Noji,Audrey 2199 38:23.4 37:30.0 12:06 684 346 Santa Ana CA
14 Niblett,Gillian 1513 38:39.3 37:51.6 12:13 695 356 Oakville Can
15 Uncanin,Jessie 2023 38:14.3 37:56.3 12:14 699 359 Irvine CA
16 Bryant,Josephine 472 42:45.2 38:51.9 12:32 712 369 Compton CA
17 Riley,Michelle 1738 43:03.4 39:12.1 12:39 716 372 Perris CA
18 Free,Marlean 2492 42:06.1 41:36.5 13:25 743 390 Laguna Beach CA
19 Mirshafiee,Linda 1427 44:38.2 44:01.3 14:12 780 414 Irvine CA
20 Babayi,Nadia 2259 52:10.4 51:18.1 16:33 871 477 Irvine CA
21 Carter,Renee 518 54:28.9 51:25.9 16:35 872 478 San Bernardino CA
22 Mathis,Chris 1355 55:56.3 54:49.9 17:41 889 492 Anaheim CA
23 Baum,Linda 387 57:58.7 56:56.4 18:22 906 503 Pasadena CA
24 Nielsen,Theresa 1516 59:04.2 58:11.2 18:46 909 505 Riverside CA
25 Kornmann,Pamela 2733 59:15.9 58:19.6 18:49 912 507 Long Beach CA
26 Chambers,Ethel 2382 1:03:46.2 1:00:13.1 19:26 925 516
27 Schroth,Elizabeth 1838 1:06:03.0 1:04:49.2 20:55 934 524 Irvine CA
28 Ball,Lisa 2895 1:06:09.4 1:06:09.4 21:20 935 525 Walnut CA
29 Yettke,Maryloyola 2143 1:07:23.5 1:07:23.5 21:44 939 528 Orange CA
Go To Top
60-64 Female
  Overall Overall State/
Place Name Bib Gun Tag Pace Place by Sex City County
1 Mcmahon,Stephanie 1380 45:53.0 45:24.8 14:39 799 427 Irvine CA
2 Peters,Marilyn 1640 46:17.9 45:30.0 14:41 800 428 AnA. CA
3 Lashgari,Shahla 2959 52:09.5 51:16.3 16:32 870 476 Irvine CA
4 Jensen,Marilyn 2622 55:29.6 54:42.9 17:39 886 489 Newport Beach CA
5 Zonnis,Sandy 2173 57:00.6 54:56.0 17:43 892 495 Tarzana CA
6 Matthews,Linda 1361 1:02:07.3 1:00:45.8 19:36 926 517 Irvine CA
7 Kasparian,Laurie 1142 1:07:23.2 1:07:23.2 21:44 938 527 Mission Viejo CA
Go To Top
65-69 Female
  Overall Overall State/
Place Name Bib Gun Tag Pace Place by Sex City County
1 Welgan,Jane 2083 26:59.7 26:52.2 8:40 315 109 Laguna Beach CA
2 Allred,Donna 303 30:31.0 29:59.4 9:40 440 174 Irvine CA
3 Pitts,Rosalie 1653 33:43.0 33:31.3 10:49 594 285 Long Beach CA
4 Hacker,Lois 943 43:38.9 42:43.8 13:47 759 401 Cerritos CA
5 Wilson,Marilyn 2114 48:03.1 46:55.8 15:08 813 439 Irvine CA
6 Michel,Marybeth 1413 50:39.7 49:41.3 16:02 848 463 Irvine CA
Go To Top
70-74 Female
  Overall Overall State/
Place Name Bib Gun Tag Pace Place by Sex City County
1 Herr,Pat 1000 31:14.9 30:57.6 9:59 492 212 Mission Viejo CA
2 Goman,Sharon 890 45:32.0 44:53.4 14:29 788 421 Long Beach CA
3 Burgh,Lien 475 50:53.7 50:18.1 16:14 856 467 Irvine CA
4 Acebedo,Betty 284 1:02:01.6 1:01:44.5 19:55 930 520 Long Beach C
Go To Top
75-79 Female
  Overall Overall State/
Place Name Bib Gun Tag Pace Place by Sex City County
1 Smith,Paula 1886 51:10.4 50:20.3 16:14 857 468 Fountain Valley CA
2 Digregorio,Lee 2506 53:31.3 51:05.7 16:29 867 474 Anaheim CA